<?xml version="1.0" encoding="UTF-8" standalone="no" ?>
<gpx xmlns="http://www.topografix.com/GPX/1/1" xmlns:xsi="http://www.w3.org/2001/XMLSchema-instance" xsi:schemaLocation="http://www.topografix.com/GPX/1/1 http://www.topografix.com/GPX/1/1/gpx.xsd" version="1.1" creator="VisuGPX - https://www.visugpx.com">
  <metadata>
    <name>lens marche de L\'ADEPS</name>
    <desc><![CDATA[marche adeps]]></desc>
  </metadata>
  <trk>
    <name><![CDATA[10-MARS-13 11:29:05]]></name>
    <trkseg>
      <trkpt lat="50.55737" lon="3.90403">
        <ele>162.12</ele>
        <time>2013-03-10T08:41:29Z</time>
      </trkpt>
      <trkpt lat="50.55738" lon="3.90402">
        <ele>162.12</ele>
        <time>2013-03-10T08:41:30Z</time>
      </trkpt>
      <trkpt lat="50.55741" lon="3.90401">
        <ele>162.12</ele>
        <time>2013-03-10T08:41:31Z</time>
      </trkpt>
      <trkpt lat="50.55743" lon="3.90399">
        <ele>162.12</ele>
        <time>2013-03-10T08:41:32Z</time>
      </trkpt>
      <trkpt lat="50.55755" lon="3.90388">
        <ele>155.87</ele>
        <time>2013-03-10T08:41:40Z</time>
      </trkpt>
      <trkpt lat="50.55756" lon="3.90388">
        <ele>155.87</ele>
        <time>2013-03-10T08:41:41Z</time>
      </trkpt>
      <trkpt lat="50.55758" lon="3.90387">
        <ele>149.62</ele>
        <time>2013-03-10T08:41:43Z</time>
      </trkpt>
      <trkpt lat="50.55761" lon="3.90385">
        <ele>144.82</ele>
        <time>2013-03-10T08:41:45Z</time>
      </trkpt>
      <trkpt lat="50.55763" lon="3.90384">
        <ele>139.05</ele>
        <time>2013-03-10T08:41:47Z</time>
      </trkpt>
      <trkpt lat="50.55765" lon="3.90383">
        <ele>134.24</ele>
        <time>2013-03-10T08:41:49Z</time>
      </trkpt>
      <trkpt lat="50.55768" lon="3.90381">
        <ele>129.92</ele>
        <time>2013-03-10T08:41:51Z</time>
      </trkpt>
      <trkpt lat="50.5577" lon="3.9038">
        <ele>125.11</ele>
        <time>2013-03-10T08:41:53Z</time>
      </trkpt>
      <trkpt lat="50.55773" lon="3.90377">
        <ele>121.26</ele>
        <time>2013-03-10T08:41:55Z</time>
      </trkpt>
      <trkpt lat="50.55774" lon="3.90378">
        <ele>117.42</ele>
        <time>2013-03-10T08:41:57Z</time>
      </trkpt>
      <trkpt lat="50.55776" lon="3.9038">
        <ele>115.98</ele>
        <time>2013-03-10T08:41:58Z</time>
      </trkpt>
      <trkpt lat="50.55778" lon="3.90386">
        <ele>112.61</ele>
        <time>2013-03-10T08:42:00Z</time>
      </trkpt>
      <trkpt lat="50.55781" lon="3.90392">
        <ele>107.81</ele>
        <time>2013-03-10T08:42:03Z</time>
      </trkpt>
      <trkpt lat="50.55783" lon="3.90391">
        <ele>103.48</ele>
        <time>2013-03-10T08:42:05Z</time>
      </trkpt>
      <trkpt lat="50.55783" lon="3.9039">
        <ele>102.52</ele>
        <time>2013-03-10T08:42:07Z</time>
      </trkpt>
      <trkpt lat="50.55783" lon="3.90389">
        <ele>99.15</ele>
        <time>2013-03-10T08:42:10Z</time>
      </trkpt>
      <trkpt lat="50.55782" lon="3.90393">
        <ele>95.31</ele>
        <time>2013-03-10T08:42:13Z</time>
      </trkpt>
      <trkpt lat="50.55783" lon="3.90398">
        <ele>91.46</ele>
        <time>2013-03-10T08:42:17Z</time>
      </trkpt>
      <trkpt lat="50.55775" lon="3.90432">
        <ele>88.58</ele>
        <time>2013-03-10T08:42:21Z</time>
      </trkpt>
      <trkpt lat="50.55777" lon="3.90437">
        <ele>87.14</ele>
        <time>2013-03-10T08:42:23Z</time>
      </trkpt>
      <trkpt lat="50.55779" lon="3.90446">
        <ele>85.21</ele>
        <time>2013-03-10T08:42:27Z</time>
      </trkpt>
      <trkpt lat="50.55779" lon="3.90455">
        <ele>85.21</ele>
        <time>2013-03-10T08:42:29Z</time>
      </trkpt>
      <trkpt lat="50.55777" lon="3.90455">
        <ele>84.25</ele>
        <time>2013-03-10T08:42:30Z</time>
      </trkpt>
      <trkpt lat="50.55775" lon="3.90455">
        <ele>83.29</ele>
        <time>2013-03-10T08:42:31Z</time>
      </trkpt>
      <trkpt lat="50.55773" lon="3.90455">
        <ele>83.29</ele>
        <time>2013-03-10T08:42:32Z</time>
      </trkpt>
      <trkpt lat="50.55758" lon="3.90457">
        <ele>79.93</ele>
        <time>2013-03-10T08:42:41Z</time>
      </trkpt>
      <trkpt lat="50.55744" lon="3.90468">
        <ele>76.08</ele>
        <time>2013-03-10T08:42:55Z</time>
      </trkpt>
      <trkpt lat="50.55728" lon="3.90477">
        <ele>73.68</ele>
        <time>2013-03-10T08:43:10Z</time>
      </trkpt>
      <trkpt lat="50.55721" lon="3.90485">
        <ele>73.2</ele>
        <time>2013-03-10T08:43:17Z</time>
      </trkpt>
      <trkpt lat="50.55729" lon="3.90519">
        <ele>73.2</ele>
        <time>2013-03-10T08:43:34Z</time>
      </trkpt>
      <trkpt lat="50.55739" lon="3.90546">
        <ele>73.68</ele>
        <time>2013-03-10T08:43:50Z</time>
      </trkpt>
      <trkpt lat="50.55734" lon="3.90569">
        <ele>73.2</ele>
        <time>2013-03-10T08:44:04Z</time>
      </trkpt>
      <trkpt lat="50.55733" lon="3.90571">
        <ele>73.2</ele>
        <time>2013-03-10T08:44:06Z</time>
      </trkpt>
      <trkpt lat="50.55719" lon="3.9058">
        <ele>73.2</ele>
        <time>2013-03-10T08:44:22Z</time>
      </trkpt>
      <trkpt lat="50.55719" lon="3.9058">
        <ele>73.2</ele>
        <time>2013-03-10T08:44:23Z</time>
      </trkpt>
      <trkpt lat="50.55718" lon="3.90581">
        <ele>73.2</ele>
        <time>2013-03-10T08:44:24Z</time>
      </trkpt>
      <trkpt lat="50.55716" lon="3.90582">
        <ele>72.72</ele>
        <time>2013-03-10T08:44:25Z</time>
      </trkpt>
      <trkpt lat="50.55715" lon="3.90583">
        <ele>73.2</ele>
        <time>2013-03-10T08:44:26Z</time>
      </trkpt>
      <trkpt lat="50.55714" lon="3.90584">
        <ele>73.2</ele>
        <time>2013-03-10T08:44:27Z</time>
      </trkpt>
      <trkpt lat="50.55713" lon="3.90585">
        <ele>72.72</ele>
        <time>2013-03-10T08:44:28Z</time>
      </trkpt>
      <trkpt lat="50.55699" lon="3.90607">
        <ele>72.24</ele>
        <time>2013-03-10T08:44:45Z</time>
      </trkpt>
      <trkpt lat="50.55692" lon="3.90626">
        <ele>70.79</ele>
        <time>2013-03-10T08:44:55Z</time>
      </trkpt>
      <trkpt lat="50.55691" lon="3.90628">
        <ele>70.79</ele>
        <time>2013-03-10T08:44:56Z</time>
      </trkpt>
      <trkpt lat="50.5569" lon="3.9063">
        <ele>70.31</ele>
        <time>2013-03-10T08:44:57Z</time>
      </trkpt>
      <trkpt lat="50.55689" lon="3.90635">
        <ele>70.79</ele>
        <time>2013-03-10T08:45:00Z</time>
      </trkpt>
      <trkpt lat="50.55683" lon="3.90648">
        <ele>70.31</ele>
        <time>2013-03-10T08:45:08Z</time>
      </trkpt>
      <trkpt lat="50.5568" lon="3.90658">
        <ele>68.87</ele>
        <time>2013-03-10T08:45:18Z</time>
      </trkpt>
      <trkpt lat="50.55676" lon="3.90674">
        <ele>68.39</ele>
        <time>2013-03-10T08:45:32Z</time>
      </trkpt>
      <trkpt lat="50.55675" lon="3.90677">
        <ele>68.39</ele>
        <time>2013-03-10T08:45:33Z</time>
      </trkpt>
      <trkpt lat="50.55675" lon="3.90678">
        <ele>68.39</ele>
        <time>2013-03-10T08:45:34Z</time>
      </trkpt>
      <trkpt lat="50.55675" lon="3.90697">
        <ele>67.43</ele>
        <time>2013-03-10T08:45:48Z</time>
      </trkpt>
      <trkpt lat="50.55676" lon="3.90699">
        <ele>67.91</ele>
        <time>2013-03-10T08:45:49Z</time>
      </trkpt>
      <trkpt lat="50.5568" lon="3.90715">
        <ele>67.91</ele>
        <time>2013-03-10T08:46:03Z</time>
      </trkpt>
      <trkpt lat="50.55682" lon="3.9072">
        <ele>67.91</ele>
        <time>2013-03-10T08:46:14Z</time>
      </trkpt>
      <trkpt lat="50.55684" lon="3.90721">
        <ele>67.91</ele>
        <time>2013-03-10T08:46:18Z</time>
      </trkpt>
      <trkpt lat="50.55684" lon="3.90722">
        <ele>67.91</ele>
        <time>2013-03-10T08:46:19Z</time>
      </trkpt>
      <trkpt lat="50.55693" lon="3.90739">
        <ele>67.91</ele>
        <time>2013-03-10T08:46:31Z</time>
      </trkpt>
      <trkpt lat="50.557" lon="3.90775">
        <ele>67.91</ele>
        <time>2013-03-10T08:46:46Z</time>
      </trkpt>
      <trkpt lat="50.5571" lon="3.9082">
        <ele>67.91</ele>
        <time>2013-03-10T08:46:59Z</time>
      </trkpt>
      <trkpt lat="50.55712" lon="3.90855">
        <ele>67.91</ele>
        <time>2013-03-10T08:47:12Z</time>
      </trkpt>
      <trkpt lat="50.55712" lon="3.90861">
        <ele>67.91</ele>
        <time>2013-03-10T08:47:16Z</time>
      </trkpt>
      <trkpt lat="50.55712" lon="3.90862">
        <ele>67.91</ele>
        <time>2013-03-10T08:47:17Z</time>
      </trkpt>
      <trkpt lat="50.55711" lon="3.90867">
        <ele>67.91</ele>
        <time>2013-03-10T08:47:18Z</time>
      </trkpt>
      <trkpt lat="50.55711" lon="3.90869">
        <ele>67.91</ele>
        <time>2013-03-10T08:47:19Z</time>
      </trkpt>
      <trkpt lat="50.55711" lon="3.90872">
        <ele>68.39</ele>
        <time>2013-03-10T08:47:20Z</time>
      </trkpt>
      <trkpt lat="50.5571" lon="3.90899">
        <ele>67.91</ele>
        <time>2013-03-10T08:47:31Z</time>
      </trkpt>
      <trkpt lat="50.55709" lon="3.90906">
        <ele>67.91</ele>
        <time>2013-03-10T08:47:37Z</time>
      </trkpt>
      <trkpt lat="50.5571" lon="3.90933">
        <ele>67.91</ele>
        <time>2013-03-10T08:47:51Z</time>
      </trkpt>
      <trkpt lat="50.55707" lon="3.90943">
        <ele>67.43</ele>
        <time>2013-03-10T08:48:02Z</time>
      </trkpt>
      <trkpt lat="50.55708" lon="3.90955">
        <ele>67.43</ele>
        <time>2013-03-10T08:48:15Z</time>
      </trkpt>
      <trkpt lat="50.55707" lon="3.90968">
        <ele>67.43</ele>
        <time>2013-03-10T08:48:26Z</time>
      </trkpt>
      <trkpt lat="50.55707" lon="3.90972">
        <ele>67.91</ele>
        <time>2013-03-10T08:48:29Z</time>
      </trkpt>
      <trkpt lat="50.55714" lon="3.90999">
        <ele>68.39</ele>
        <time>2013-03-10T08:48:42Z</time>
      </trkpt>
      <trkpt lat="50.55718" lon="3.91007">
        <ele>68.87</ele>
        <time>2013-03-10T08:48:47Z</time>
      </trkpt>
      <trkpt lat="50.55727" lon="3.91016">
        <ele>69.35</ele>
        <time>2013-03-10T08:48:55Z</time>
      </trkpt>
      <trkpt lat="50.55754" lon="3.91044">
        <ele>69.83</ele>
        <time>2013-03-10T08:49:14Z</time>
      </trkpt>
      <trkpt lat="50.55777" lon="3.91056">
        <ele>69.35</ele>
        <time>2013-03-10T08:49:30Z</time>
      </trkpt>
      <trkpt lat="50.558" lon="3.91062">
        <ele>70.31</ele>
        <time>2013-03-10T08:49:46Z</time>
      </trkpt>
      <trkpt lat="50.55802" lon="3.91062">
        <ele>70.79</ele>
        <time>2013-03-10T08:49:48Z</time>
      </trkpt>
      <trkpt lat="50.55824" lon="3.91074">
        <ele>70.31</ele>
        <time>2013-03-10T08:50:03Z</time>
      </trkpt>
      <trkpt lat="50.55849" lon="3.91082">
        <ele>71.27</ele>
        <time>2013-03-10T08:50:21Z</time>
      </trkpt>
      <trkpt lat="50.5587" lon="3.91081">
        <ele>72.24</ele>
        <time>2013-03-10T08:50:36Z</time>
      </trkpt>
      <trkpt lat="50.55887" lon="3.91081">
        <ele>72.72</ele>
        <time>2013-03-10T08:50:51Z</time>
      </trkpt>
      <trkpt lat="50.55902" lon="3.91095">
        <ele>73.68</ele>
        <time>2013-03-10T08:51:06Z</time>
      </trkpt>
      <trkpt lat="50.55908" lon="3.91102">
        <ele>73.68</ele>
        <time>2013-03-10T08:51:12Z</time>
      </trkpt>
      <trkpt lat="50.55912" lon="3.91105">
        <ele>74.16</ele>
        <time>2013-03-10T08:51:16Z</time>
      </trkpt>
      <trkpt lat="50.55928" lon="3.91129">
        <ele>75.12</ele>
        <time>2013-03-10T08:51:34Z</time>
      </trkpt>
      <trkpt lat="50.55932" lon="3.91138">
        <ele>75.6</ele>
        <time>2013-03-10T08:51:41Z</time>
      </trkpt>
      <trkpt lat="50.55936" lon="3.91148">
        <ele>75.6</ele>
        <time>2013-03-10T08:51:47Z</time>
      </trkpt>
      <trkpt lat="50.55968" lon="3.91167">
        <ele>77.04</ele>
        <time>2013-03-10T08:52:07Z</time>
      </trkpt>
      <trkpt lat="50.55988" lon="3.91197">
        <ele>77.52</ele>
        <time>2013-03-10T08:52:27Z</time>
      </trkpt>
      <trkpt lat="50.56009" lon="3.91235">
        <ele>78</ele>
        <time>2013-03-10T08:52:48Z</time>
      </trkpt>
      <trkpt lat="50.56022" lon="3.9127">
        <ele>78.48</ele>
        <time>2013-03-10T08:53:07Z</time>
      </trkpt>
      <trkpt lat="50.56031" lon="3.913">
        <ele>78.48</ele>
        <time>2013-03-10T08:53:22Z</time>
      </trkpt>
      <trkpt lat="50.56043" lon="3.91339">
        <ele>79.45</ele>
        <time>2013-03-10T08:53:42Z</time>
      </trkpt>
      <trkpt lat="50.56056" lon="3.91382">
        <ele>79.45</ele>
        <time>2013-03-10T08:54:04Z</time>
      </trkpt>
      <trkpt lat="50.56068" lon="3.91422">
        <ele>79.93</ele>
        <time>2013-03-10T08:54:25Z</time>
      </trkpt>
      <trkpt lat="50.56073" lon="3.91432">
        <ele>80.41</ele>
        <time>2013-03-10T08:54:31Z</time>
      </trkpt>
      <trkpt lat="50.56082" lon="3.9146">
        <ele>80.89</ele>
        <time>2013-03-10T08:54:45Z</time>
      </trkpt>
      <trkpt lat="50.56095" lon="3.91501">
        <ele>80.89</ele>
        <time>2013-03-10T08:55:06Z</time>
      </trkpt>
      <trkpt lat="50.56104" lon="3.91535">
        <ele>81.37</ele>
        <time>2013-03-10T08:55:23Z</time>
      </trkpt>
      <trkpt lat="50.56116" lon="3.91573">
        <ele>81.37</ele>
        <time>2013-03-10T08:55:43Z</time>
      </trkpt>
      <trkpt lat="50.56128" lon="3.91607">
        <ele>80.89</ele>
        <time>2013-03-10T08:56:01Z</time>
      </trkpt>
      <trkpt lat="50.5614" lon="3.91646">
        <ele>80.41</ele>
        <time>2013-03-10T08:56:21Z</time>
      </trkpt>
      <trkpt lat="50.5615" lon="3.91683">
        <ele>79.45</ele>
        <time>2013-03-10T08:56:40Z</time>
      </trkpt>
      <trkpt lat="50.5616" lon="3.91724">
        <ele>78.48</ele>
        <time>2013-03-10T08:56:59Z</time>
      </trkpt>
      <trkpt lat="50.5617" lon="3.9176">
        <ele>77.04</ele>
        <time>2013-03-10T08:57:17Z</time>
      </trkpt>
      <trkpt lat="50.56178" lon="3.91797">
        <ele>75.6</ele>
        <time>2013-03-10T08:57:35Z</time>
      </trkpt>
      <trkpt lat="50.56186" lon="3.9184">
        <ele>74.16</ele>
        <time>2013-03-10T08:57:55Z</time>
      </trkpt>
      <trkpt lat="50.56192" lon="3.91882">
        <ele>72.72</ele>
        <time>2013-03-10T08:58:15Z</time>
      </trkpt>
      <trkpt lat="50.56197" lon="3.91923">
        <ele>71.76</ele>
        <time>2013-03-10T08:58:34Z</time>
      </trkpt>
      <trkpt lat="50.562" lon="3.91955">
        <ele>70.79</ele>
        <time>2013-03-10T08:58:48Z</time>
      </trkpt>
      <trkpt lat="50.56202" lon="3.91989">
        <ele>70.31</ele>
        <time>2013-03-10T08:59:04Z</time>
      </trkpt>
      <trkpt lat="50.56205" lon="3.92016">
        <ele>69.83</ele>
        <time>2013-03-10T08:59:18Z</time>
      </trkpt>
      <trkpt lat="50.56205" lon="3.92054">
        <ele>68.87</ele>
        <time>2013-03-10T08:59:36Z</time>
      </trkpt>
      <trkpt lat="50.56203" lon="3.92093">
        <ele>68.87</ele>
        <time>2013-03-10T08:59:54Z</time>
      </trkpt>
      <trkpt lat="50.56203" lon="3.92123">
        <ele>68.87</ele>
        <time>2013-03-10T09:00:08Z</time>
      </trkpt>
      <trkpt lat="50.56203" lon="3.92151">
        <ele>68.87</ele>
        <time>2013-03-10T09:00:21Z</time>
      </trkpt>
      <trkpt lat="50.56203" lon="3.9219">
        <ele>68.39</ele>
        <time>2013-03-10T09:00:38Z</time>
      </trkpt>
      <trkpt lat="50.56208" lon="3.92225">
        <ele>68.39</ele>
        <time>2013-03-10T09:00:54Z</time>
      </trkpt>
      <trkpt lat="50.56213" lon="3.92266">
        <ele>69.35</ele>
        <time>2013-03-10T09:01:11Z</time>
      </trkpt>
      <trkpt lat="50.56219" lon="3.92309">
        <ele>70.79</ele>
        <time>2013-03-10T09:01:32Z</time>
      </trkpt>
      <trkpt lat="50.56226" lon="3.92346">
        <ele>73.2</ele>
        <time>2013-03-10T09:01:50Z</time>
      </trkpt>
      <trkpt lat="50.56232" lon="3.92369">
        <ele>74.64</ele>
        <time>2013-03-10T09:02:02Z</time>
      </trkpt>
      <trkpt lat="50.5624" lon="3.92392">
        <ele>75.6</ele>
        <time>2013-03-10T09:02:14Z</time>
      </trkpt>
      <trkpt lat="50.56249" lon="3.92424">
        <ele>78</ele>
        <time>2013-03-10T09:02:30Z</time>
      </trkpt>
      <trkpt lat="50.56258" lon="3.92457">
        <ele>78.48</ele>
        <time>2013-03-10T09:02:48Z</time>
      </trkpt>
      <trkpt lat="50.5626" lon="3.92506">
        <ele>79.45</ele>
        <time>2013-03-10T09:03:11Z</time>
      </trkpt>
      <trkpt lat="50.56259" lon="3.92522">
        <ele>79.45</ele>
        <time>2013-03-10T09:03:18Z</time>
      </trkpt>
      <trkpt lat="50.5626" lon="3.9256">
        <ele>79.45</ele>
        <time>2013-03-10T09:03:35Z</time>
      </trkpt>
      <trkpt lat="50.56258" lon="3.92591">
        <ele>78.97</ele>
        <time>2013-03-10T09:03:49Z</time>
      </trkpt>
      <trkpt lat="50.56259" lon="3.92607">
        <ele>79.93</ele>
        <time>2013-03-10T09:03:57Z</time>
      </trkpt>
      <trkpt lat="50.56257" lon="3.9264">
        <ele>80.41</ele>
        <time>2013-03-10T09:04:14Z</time>
      </trkpt>
      <trkpt lat="50.56258" lon="3.92678">
        <ele>80.41</ele>
        <time>2013-03-10T09:04:30Z</time>
      </trkpt>
      <trkpt lat="50.56257" lon="3.92715">
        <ele>80.41</ele>
        <time>2013-03-10T09:04:48Z</time>
      </trkpt>
      <trkpt lat="50.56257" lon="3.9275">
        <ele>80.41</ele>
        <time>2013-03-10T09:05:05Z</time>
      </trkpt>
      <trkpt lat="50.56262" lon="3.92785">
        <ele>80.89</ele>
        <time>2013-03-10T09:05:21Z</time>
      </trkpt>
      <trkpt lat="50.56267" lon="3.92824">
        <ele>80.89</ele>
        <time>2013-03-10T09:05:39Z</time>
      </trkpt>
      <trkpt lat="50.56275" lon="3.92861">
        <ele>81.85</ele>
        <time>2013-03-10T09:05:57Z</time>
      </trkpt>
      <trkpt lat="50.56276" lon="3.92865">
        <ele>81.85</ele>
        <time>2013-03-10T09:05:59Z</time>
      </trkpt>
      <trkpt lat="50.56276" lon="3.92873">
        <ele>81.85</ele>
        <time>2013-03-10T09:06:03Z</time>
      </trkpt>
      <trkpt lat="50.56283" lon="3.9291">
        <ele>82.33</ele>
        <time>2013-03-10T09:06:21Z</time>
      </trkpt>
      <trkpt lat="50.56294" lon="3.92952">
        <ele>82.33</ele>
        <time>2013-03-10T09:06:40Z</time>
      </trkpt>
      <trkpt lat="50.563" lon="3.9298">
        <ele>82.81</ele>
        <time>2013-03-10T09:06:53Z</time>
      </trkpt>
      <trkpt lat="50.56306" lon="3.93011">
        <ele>82.81</ele>
        <time>2013-03-10T09:07:09Z</time>
      </trkpt>
      <trkpt lat="50.56313" lon="3.93046">
        <ele>82.33</ele>
        <time>2013-03-10T09:07:26Z</time>
      </trkpt>
      <trkpt lat="50.56319" lon="3.93067">
        <ele>82.81</ele>
        <time>2013-03-10T09:07:38Z</time>
      </trkpt>
      <trkpt lat="50.56319" lon="3.93069">
        <ele>82.33</ele>
        <time>2013-03-10T09:07:39Z</time>
      </trkpt>
      <trkpt lat="50.56319" lon="3.9307">
        <ele>82.81</ele>
        <time>2013-03-10T09:07:40Z</time>
      </trkpt>
      <trkpt lat="50.56319" lon="3.93072">
        <ele>82.33</ele>
        <time>2013-03-10T09:07:41Z</time>
      </trkpt>
      <trkpt lat="50.56319" lon="3.93074">
        <ele>82.33</ele>
        <time>2013-03-10T09:07:42Z</time>
      </trkpt>
      <trkpt lat="50.56325" lon="3.93107">
        <ele>82.33</ele>
        <time>2013-03-10T09:07:58Z</time>
      </trkpt>
      <trkpt lat="50.56331" lon="3.93134">
        <ele>82.33</ele>
        <time>2013-03-10T09:08:12Z</time>
      </trkpt>
      <trkpt lat="50.56338" lon="3.93167">
        <ele>82.81</ele>
        <time>2013-03-10T09:08:27Z</time>
      </trkpt>
      <trkpt lat="50.56347" lon="3.93207">
        <ele>82.33</ele>
        <time>2013-03-10T09:08:46Z</time>
      </trkpt>
      <trkpt lat="50.56352" lon="3.93225">
        <ele>82.33</ele>
        <time>2013-03-10T09:08:55Z</time>
      </trkpt>
      <trkpt lat="50.56352" lon="3.93227">
        <ele>81.85</ele>
        <time>2013-03-10T09:08:56Z</time>
      </trkpt>
      <trkpt lat="50.56352" lon="3.93229">
        <ele>82.33</ele>
        <time>2013-03-10T09:08:57Z</time>
      </trkpt>
      <trkpt lat="50.56361" lon="3.93265">
        <ele>81.85</ele>
        <time>2013-03-10T09:09:14Z</time>
      </trkpt>
      <trkpt lat="50.56361" lon="3.93267">
        <ele>81.85</ele>
        <time>2013-03-10T09:09:15Z</time>
      </trkpt>
      <trkpt lat="50.5636" lon="3.93269">
        <ele>81.85</ele>
        <time>2013-03-10T09:09:16Z</time>
      </trkpt>
      <trkpt lat="50.56362" lon="3.933">
        <ele>81.37</ele>
        <time>2013-03-10T09:09:31Z</time>
      </trkpt>
      <trkpt lat="50.56363" lon="3.93308">
        <ele>81.37</ele>
        <time>2013-03-10T09:09:35Z</time>
      </trkpt>
      <trkpt lat="50.56362" lon="3.93309">
        <ele>81.37</ele>
        <time>2013-03-10T09:09:36Z</time>
      </trkpt>
      <trkpt lat="50.56346" lon="3.93318">
        <ele>79.93</ele>
        <time>2013-03-10T09:09:50Z</time>
      </trkpt>
      <trkpt lat="50.56339" lon="3.93316">
        <ele>78.97</ele>
        <time>2013-03-10T09:09:56Z</time>
      </trkpt>
      <trkpt lat="50.56337" lon="3.93316">
        <ele>78.48</ele>
        <time>2013-03-10T09:09:57Z</time>
      </trkpt>
      <trkpt lat="50.56317" lon="3.93311">
        <ele>76.56</ele>
        <time>2013-03-10T09:10:12Z</time>
      </trkpt>
      <trkpt lat="50.56298" lon="3.93312">
        <ele>75.12</ele>
        <time>2013-03-10T09:10:27Z</time>
      </trkpt>
      <trkpt lat="50.56275" lon="3.93316">
        <ele>73.2</ele>
        <time>2013-03-10T09:10:45Z</time>
      </trkpt>
      <trkpt lat="50.56251" lon="3.93317">
        <ele>71.76</ele>
        <time>2013-03-10T09:11:02Z</time>
      </trkpt>
      <trkpt lat="50.56229" lon="3.9332">
        <ele>69.83</ele>
        <time>2013-03-10T09:11:18Z</time>
      </trkpt>
      <trkpt lat="50.56201" lon="3.93323">
        <ele>68.87</ele>
        <time>2013-03-10T09:11:38Z</time>
      </trkpt>
      <trkpt lat="50.56177" lon="3.93332">
        <ele>69.35</ele>
        <time>2013-03-10T09:11:56Z</time>
      </trkpt>
      <trkpt lat="50.56151" lon="3.93343">
        <ele>68.87</ele>
        <time>2013-03-10T09:12:16Z</time>
      </trkpt>
      <trkpt lat="50.56121" lon="3.93363">
        <ele>69.83</ele>
        <time>2013-03-10T09:12:38Z</time>
      </trkpt>
      <trkpt lat="50.56097" lon="3.93377">
        <ele>70.79</ele>
        <time>2013-03-10T09:12:56Z</time>
      </trkpt>
      <trkpt lat="50.56075" lon="3.9339">
        <ele>72.72</ele>
        <time>2013-03-10T09:13:13Z</time>
      </trkpt>
      <trkpt lat="50.56057" lon="3.93411">
        <ele>74.16</ele>
        <time>2013-03-10T09:13:30Z</time>
      </trkpt>
      <trkpt lat="50.56047" lon="3.9344">
        <ele>75.12</ele>
        <time>2013-03-10T09:13:47Z</time>
      </trkpt>
      <trkpt lat="50.56036" lon="3.93472">
        <ele>76.08</ele>
        <time>2013-03-10T09:14:05Z</time>
      </trkpt>
      <trkpt lat="50.56023" lon="3.93506">
        <ele>77.04</ele>
        <time>2013-03-10T09:14:23Z</time>
      </trkpt>
      <trkpt lat="50.56016" lon="3.93528">
        <ele>77.52</ele>
        <time>2013-03-10T09:14:35Z</time>
      </trkpt>
      <trkpt lat="50.56015" lon="3.93529">
        <ele>77.04</ele>
        <time>2013-03-10T09:14:36Z</time>
      </trkpt>
      <trkpt lat="50.56014" lon="3.9353">
        <ele>78</ele>
        <time>2013-03-10T09:14:37Z</time>
      </trkpt>
      <trkpt lat="50.56013" lon="3.93532">
        <ele>78</ele>
        <time>2013-03-10T09:14:38Z</time>
      </trkpt>
      <trkpt lat="50.56012" lon="3.93533">
        <ele>77.52</ele>
        <time>2013-03-10T09:14:39Z</time>
      </trkpt>
      <trkpt lat="50.55993" lon="3.93564">
        <ele>78</ele>
        <time>2013-03-10T09:15:00Z</time>
      </trkpt>
      <trkpt lat="50.55973" lon="3.93599">
        <ele>79.45</ele>
        <time>2013-03-10T09:15:21Z</time>
      </trkpt>
      <trkpt lat="50.55951" lon="3.93612">
        <ele>79.93</ele>
        <time>2013-03-10T09:15:40Z</time>
      </trkpt>
      <trkpt lat="50.55932" lon="3.93585">
        <ele>80.89</ele>
        <time>2013-03-10T09:16:00Z</time>
      </trkpt>
      <trkpt lat="50.55906" lon="3.9356">
        <ele>81.37</ele>
        <time>2013-03-10T09:16:21Z</time>
      </trkpt>
      <trkpt lat="50.55877" lon="3.93561">
        <ele>81.37</ele>
        <time>2013-03-10T09:16:42Z</time>
      </trkpt>
      <trkpt lat="50.55863" lon="3.93571">
        <ele>81.85</ele>
        <time>2013-03-10T09:16:54Z</time>
      </trkpt>
      <trkpt lat="50.55838" lon="3.9358">
        <ele>82.81</ele>
        <time>2013-03-10T09:17:13Z</time>
      </trkpt>
      <trkpt lat="50.55812" lon="3.93575">
        <ele>82.81</ele>
        <time>2013-03-10T09:17:32Z</time>
      </trkpt>
      <trkpt lat="50.55789" lon="3.93569">
        <ele>82.81</ele>
        <time>2013-03-10T09:17:49Z</time>
      </trkpt>
      <trkpt lat="50.55758" lon="3.93572">
        <ele>82.33</ele>
        <time>2013-03-10T09:18:11Z</time>
      </trkpt>
      <trkpt lat="50.55732" lon="3.9355">
        <ele>83.29</ele>
        <time>2013-03-10T09:18:33Z</time>
      </trkpt>
      <trkpt lat="50.55714" lon="3.93525">
        <ele>83.29</ele>
        <time>2013-03-10T09:18:50Z</time>
      </trkpt>
      <trkpt lat="50.55707" lon="3.93515">
        <ele>82.81</ele>
        <time>2013-03-10T09:18:57Z</time>
      </trkpt>
      <trkpt lat="50.55706" lon="3.93513">
        <ele>82.33</ele>
        <time>2013-03-10T09:18:58Z</time>
      </trkpt>
      <trkpt lat="50.55705" lon="3.93512">
        <ele>82.81</ele>
        <time>2013-03-10T09:18:59Z</time>
      </trkpt>
      <trkpt lat="50.55704" lon="3.93511">
        <ele>82.81</ele>
        <time>2013-03-10T09:19:00Z</time>
      </trkpt>
      <trkpt lat="50.55703" lon="3.93509">
        <ele>82.81</ele>
        <time>2013-03-10T09:19:01Z</time>
      </trkpt>
      <trkpt lat="50.55681" lon="3.9348">
        <ele>82.81</ele>
        <time>2013-03-10T09:19:21Z</time>
      </trkpt>
      <trkpt lat="50.55666" lon="3.93461">
        <ele>82.81</ele>
        <time>2013-03-10T09:19:35Z</time>
      </trkpt>
      <trkpt lat="50.55664" lon="3.93459">
        <ele>82.81</ele>
        <time>2013-03-10T09:19:36Z</time>
      </trkpt>
      <trkpt lat="50.55664" lon="3.93457">
        <ele>82.81</ele>
        <time>2013-03-10T09:19:37Z</time>
      </trkpt>
      <trkpt lat="50.55644" lon="3.93429">
        <ele>82.81</ele>
        <time>2013-03-10T09:19:57Z</time>
      </trkpt>
      <trkpt lat="50.55619" lon="3.93396">
        <ele>83.29</ele>
        <time>2013-03-10T09:20:20Z</time>
      </trkpt>
      <trkpt lat="50.55598" lon="3.93369">
        <ele>83.29</ele>
        <time>2013-03-10T09:20:39Z</time>
      </trkpt>
      <trkpt lat="50.55572" lon="3.93334">
        <ele>83.77</ele>
        <time>2013-03-10T09:21:04Z</time>
      </trkpt>
      <trkpt lat="50.55549" lon="3.93305">
        <ele>83.77</ele>
        <time>2013-03-10T09:21:25Z</time>
      </trkpt>
      <trkpt lat="50.55542" lon="3.93294">
        <ele>83.29</ele>
        <time>2013-03-10T09:21:31Z</time>
      </trkpt>
      <trkpt lat="50.5554" lon="3.93285">
        <ele>82.81</ele>
        <time>2013-03-10T09:21:35Z</time>
      </trkpt>
      <trkpt lat="50.55541" lon="3.93283">
        <ele>83.29</ele>
        <time>2013-03-10T09:21:37Z</time>
      </trkpt>
      <trkpt lat="50.55541" lon="3.93281">
        <ele>83.77</ele>
        <time>2013-03-10T09:21:38Z</time>
      </trkpt>
      <trkpt lat="50.55555" lon="3.93254">
        <ele>83.29</ele>
        <time>2013-03-10T09:21:56Z</time>
      </trkpt>
      <trkpt lat="50.55572" lon="3.93225">
        <ele>82.81</ele>
        <time>2013-03-10T09:22:14Z</time>
      </trkpt>
      <trkpt lat="50.55588" lon="3.93194">
        <ele>83.29</ele>
        <time>2013-03-10T09:22:34Z</time>
      </trkpt>
      <trkpt lat="50.55602" lon="3.93162">
        <ele>82.33</ele>
        <time>2013-03-10T09:22:52Z</time>
      </trkpt>
      <trkpt lat="50.55617" lon="3.93124">
        <ele>81.85</ele>
        <time>2013-03-10T09:23:11Z</time>
      </trkpt>
      <trkpt lat="50.55628" lon="3.93089">
        <ele>81.85</ele>
        <time>2013-03-10T09:23:28Z</time>
      </trkpt>
      <trkpt lat="50.55641" lon="3.93044">
        <ele>81.37</ele>
        <time>2013-03-10T09:23:50Z</time>
      </trkpt>
      <trkpt lat="50.55641" lon="3.93039">
        <ele>81.85</ele>
        <time>2013-03-10T09:23:57Z</time>
      </trkpt>
      <trkpt lat="50.5565" lon="3.9301">
        <ele>81.37</ele>
        <time>2013-03-10T09:24:14Z</time>
      </trkpt>
      <trkpt lat="50.55665" lon="3.92975">
        <ele>80.89</ele>
        <time>2013-03-10T09:24:34Z</time>
      </trkpt>
      <trkpt lat="50.55679" lon="3.9294">
        <ele>80.41</ele>
        <time>2013-03-10T09:24:52Z</time>
      </trkpt>
      <trkpt lat="50.55692" lon="3.92905">
        <ele>79.93</ele>
        <time>2013-03-10T09:25:11Z</time>
      </trkpt>
      <trkpt lat="50.55698" lon="3.92858">
        <ele>79.45</ele>
        <time>2013-03-10T09:25:33Z</time>
      </trkpt>
      <trkpt lat="50.55692" lon="3.9281">
        <ele>78.97</ele>
        <time>2013-03-10T09:25:54Z</time>
      </trkpt>
      <trkpt lat="50.55684" lon="3.92765">
        <ele>79.45</ele>
        <time>2013-03-10T09:26:16Z</time>
      </trkpt>
      <trkpt lat="50.55683" lon="3.9274">
        <ele>78.97</ele>
        <time>2013-03-10T09:26:28Z</time>
      </trkpt>
      <trkpt lat="50.55684" lon="3.92739">
        <ele>78.97</ele>
        <time>2013-03-10T09:26:29Z</time>
      </trkpt>
      <trkpt lat="50.55684" lon="3.92737">
        <ele>78.97</ele>
        <time>2013-03-10T09:26:30Z</time>
      </trkpt>
      <trkpt lat="50.55685" lon="3.92735">
        <ele>78.97</ele>
        <time>2013-03-10T09:26:31Z</time>
      </trkpt>
      <trkpt lat="50.55686" lon="3.92733">
        <ele>78.97</ele>
        <time>2013-03-10T09:26:32Z</time>
      </trkpt>
      <trkpt lat="50.55691" lon="3.92693">
        <ele>78.97</ele>
        <time>2013-03-10T09:26:52Z</time>
      </trkpt>
      <trkpt lat="50.55685" lon="3.9265">
        <ele>78.97</ele>
        <time>2013-03-10T09:27:11Z</time>
      </trkpt>
      <trkpt lat="50.55668" lon="3.92618">
        <ele>78.48</ele>
        <time>2013-03-10T09:27:31Z</time>
      </trkpt>
      <trkpt lat="50.55655" lon="3.92595">
        <ele>78.97</ele>
        <time>2013-03-10T09:27:47Z</time>
      </trkpt>
      <trkpt lat="50.55649" lon="3.92562">
        <ele>78.48</ele>
        <time>2013-03-10T09:28:04Z</time>
      </trkpt>
      <trkpt lat="50.55642" lon="3.92523">
        <ele>78.48</ele>
        <time>2013-03-10T09:28:23Z</time>
      </trkpt>
      <trkpt lat="50.55624" lon="3.92501">
        <ele>78.97</ele>
        <time>2013-03-10T09:28:39Z</time>
      </trkpt>
      <trkpt lat="50.55606" lon="3.92468">
        <ele>78.48</ele>
        <time>2013-03-10T09:28:58Z</time>
      </trkpt>
      <trkpt lat="50.55599" lon="3.92433">
        <ele>78.48</ele>
        <time>2013-03-10T09:29:17Z</time>
      </trkpt>
      <trkpt lat="50.55591" lon="3.924">
        <ele>78.48</ele>
        <time>2013-03-10T09:29:35Z</time>
      </trkpt>
      <trkpt lat="50.55585" lon="3.92369">
        <ele>79.45</ele>
        <time>2013-03-10T09:29:51Z</time>
      </trkpt>
      <trkpt lat="50.55575" lon="3.92318">
        <ele>78.97</ele>
        <time>2013-03-10T09:30:14Z</time>
      </trkpt>
      <trkpt lat="50.55567" lon="3.92279">
        <ele>79.45</ele>
        <time>2013-03-10T09:30:33Z</time>
      </trkpt>
      <trkpt lat="50.55558" lon="3.92244">
        <ele>79.45</ele>
        <time>2013-03-10T09:30:52Z</time>
      </trkpt>
      <trkpt lat="50.55555" lon="3.92232">
        <ele>79.45</ele>
        <time>2013-03-10T09:30:58Z</time>
      </trkpt>
      <trkpt lat="50.55554" lon="3.9223">
        <ele>79.45</ele>
        <time>2013-03-10T09:30:59Z</time>
      </trkpt>
      <trkpt lat="50.55547" lon="3.92196">
        <ele>80.41</ele>
        <time>2013-03-10T09:31:16Z</time>
      </trkpt>
      <trkpt lat="50.55539" lon="3.92152">
        <ele>80.41</ele>
        <time>2013-03-10T09:31:37Z</time>
      </trkpt>
      <trkpt lat="50.55528" lon="3.92112">
        <ele>79.93</ele>
        <time>2013-03-10T09:31:56Z</time>
      </trkpt>
      <trkpt lat="50.55532" lon="3.92085">
        <ele>80.41</ele>
        <time>2013-03-10T09:32:12Z</time>
      </trkpt>
      <trkpt lat="50.55547" lon="3.92067">
        <ele>79.93</ele>
        <time>2013-03-10T09:32:29Z</time>
      </trkpt>
      <trkpt lat="50.55567" lon="3.92053">
        <ele>80.41</ele>
        <time>2013-03-10T09:32:48Z</time>
      </trkpt>
      <trkpt lat="50.55592" lon="3.92031">
        <ele>78.97</ele>
        <time>2013-03-10T09:33:10Z</time>
      </trkpt>
      <trkpt lat="50.55615" lon="3.92016">
        <ele>78.48</ele>
        <time>2013-03-10T09:33:28Z</time>
      </trkpt>
      <trkpt lat="50.55641" lon="3.91994">
        <ele>78</ele>
        <time>2013-03-10T09:33:47Z</time>
      </trkpt>
      <trkpt lat="50.55664" lon="3.91973">
        <ele>76.56</ele>
        <time>2013-03-10T09:34:06Z</time>
      </trkpt>
      <trkpt lat="50.55689" lon="3.91952">
        <ele>75.12</ele>
        <time>2013-03-10T09:34:26Z</time>
      </trkpt>
      <trkpt lat="50.55703" lon="3.91924">
        <ele>73.68</ele>
        <time>2013-03-10T09:34:44Z</time>
      </trkpt>
      <trkpt lat="50.55701" lon="3.91889">
        <ele>72.24</ele>
        <time>2013-03-10T09:35:03Z</time>
      </trkpt>
      <trkpt lat="50.55702" lon="3.91847">
        <ele>69.35</ele>
        <time>2013-03-10T09:35:19Z</time>
      </trkpt>
      <trkpt lat="50.55704" lon="3.91802">
        <ele>67.43</ele>
        <time>2013-03-10T09:35:39Z</time>
      </trkpt>
      <trkpt lat="50.55699" lon="3.91771">
        <ele>65.99</ele>
        <time>2013-03-10T09:35:53Z</time>
      </trkpt>
      <trkpt lat="50.55696" lon="3.9177">
        <ele>67.43</ele>
        <time>2013-03-10T09:36:10Z</time>
      </trkpt>
      <trkpt lat="50.55695" lon="3.91755">
        <ele>65.51</ele>
        <time>2013-03-10T09:36:24Z</time>
      </trkpt>
      <trkpt lat="50.55693" lon="3.9174">
        <ele>65.51</ele>
        <time>2013-03-10T09:36:41Z</time>
      </trkpt>
      <trkpt lat="50.55691" lon="3.91736">
        <ele>65.99</ele>
        <time>2013-03-10T09:36:57Z</time>
      </trkpt>
      <trkpt lat="50.55692" lon="3.91722">
        <ele>65.99</ele>
        <time>2013-03-10T09:37:07Z</time>
      </trkpt>
      <trkpt lat="50.55694" lon="3.91718">
        <ele>65.99</ele>
        <time>2013-03-10T09:37:10Z</time>
      </trkpt>
      <trkpt lat="50.55694" lon="3.91716">
        <ele>65.51</ele>
        <time>2013-03-10T09:37:11Z</time>
      </trkpt>
      <trkpt lat="50.55695" lon="3.91714">
        <ele>65.51</ele>
        <time>2013-03-10T09:37:12Z</time>
      </trkpt>
      <trkpt lat="50.55695" lon="3.91706">
        <ele>66.47</ele>
        <time>2013-03-10T09:37:16Z</time>
      </trkpt>
      <trkpt lat="50.55694" lon="3.91688">
        <ele>66.47</ele>
        <time>2013-03-10T09:37:25Z</time>
      </trkpt>
      <trkpt lat="50.55694" lon="3.91686">
        <ele>66.47</ele>
        <time>2013-03-10T09:37:26Z</time>
      </trkpt>
      <trkpt lat="50.55694" lon="3.91684">
        <ele>66.95</ele>
        <time>2013-03-10T09:37:27Z</time>
      </trkpt>
      <trkpt lat="50.55693" lon="3.91682">
        <ele>66.95</ele>
        <time>2013-03-10T09:37:28Z</time>
      </trkpt>
      <trkpt lat="50.55693" lon="3.9168">
        <ele>66.95</ele>
        <time>2013-03-10T09:37:29Z</time>
      </trkpt>
      <trkpt lat="50.55692" lon="3.91678">
        <ele>67.43</ele>
        <time>2013-03-10T09:37:30Z</time>
      </trkpt>
      <trkpt lat="50.55692" lon="3.91676">
        <ele>66.47</ele>
        <time>2013-03-10T09:37:31Z</time>
      </trkpt>
      <trkpt lat="50.55692" lon="3.91674">
        <ele>67.43</ele>
        <time>2013-03-10T09:37:32Z</time>
      </trkpt>
      <trkpt lat="50.5569" lon="3.91656">
        <ele>67.91</ele>
        <time>2013-03-10T09:37:46Z</time>
      </trkpt>
      <trkpt lat="50.55688" lon="3.91647">
        <ele>68.87</ele>
        <time>2013-03-10T09:37:52Z</time>
      </trkpt>
      <trkpt lat="50.55688" lon="3.91645">
        <ele>68.39</ele>
        <time>2013-03-10T09:37:53Z</time>
      </trkpt>
      <trkpt lat="50.55687" lon="3.91643">
        <ele>68.39</ele>
        <time>2013-03-10T09:37:54Z</time>
      </trkpt>
      <trkpt lat="50.55681" lon="3.91613">
        <ele>69.83</ele>
        <time>2013-03-10T09:38:11Z</time>
      </trkpt>
      <trkpt lat="50.55677" lon="3.91581">
        <ele>70.79</ele>
        <time>2013-03-10T09:38:31Z</time>
      </trkpt>
      <trkpt lat="50.55676" lon="3.91573">
        <ele>70.31</ele>
        <time>2013-03-10T09:38:44Z</time>
      </trkpt>
      <trkpt lat="50.55673" lon="3.91553">
        <ele>70.79</ele>
        <time>2013-03-10T09:38:55Z</time>
      </trkpt>
      <trkpt lat="50.55673" lon="3.91551">
        <ele>70.79</ele>
        <time>2013-03-10T09:38:56Z</time>
      </trkpt>
      <trkpt lat="50.55673" lon="3.91549">
        <ele>70.31</ele>
        <time>2013-03-10T09:38:57Z</time>
      </trkpt>
      <trkpt lat="50.55672" lon="3.91547">
        <ele>70.31</ele>
        <time>2013-03-10T09:38:58Z</time>
      </trkpt>
      <trkpt lat="50.55672" lon="3.91545">
        <ele>70.79</ele>
        <time>2013-03-10T09:38:59Z</time>
      </trkpt>
      <trkpt lat="50.55672" lon="3.91543">
        <ele>71.27</ele>
        <time>2013-03-10T09:39:00Z</time>
      </trkpt>
      <trkpt lat="50.55672" lon="3.91541">
        <ele>71.27</ele>
        <time>2013-03-10T09:39:01Z</time>
      </trkpt>
      <trkpt lat="50.55667" lon="3.91509">
        <ele>70.31</ele>
        <time>2013-03-10T09:39:17Z</time>
      </trkpt>
      <trkpt lat="50.55663" lon="3.9148">
        <ele>70.31</ele>
        <time>2013-03-10T09:39:31Z</time>
      </trkpt>
      <trkpt lat="50.5566" lon="3.91456">
        <ele>69.83</ele>
        <time>2013-03-10T09:39:43Z</time>
      </trkpt>
      <trkpt lat="50.55656" lon="3.91426">
        <ele>70.31</ele>
        <time>2013-03-10T09:39:57Z</time>
      </trkpt>
      <trkpt lat="50.55651" lon="3.91399">
        <ele>68.87</ele>
        <time>2013-03-10T09:40:10Z</time>
      </trkpt>
      <trkpt lat="50.55646" lon="3.91367">
        <ele>69.83</ele>
        <time>2013-03-10T09:40:25Z</time>
      </trkpt>
      <trkpt lat="50.55645" lon="3.91348">
        <ele>69.35</ele>
        <time>2013-03-10T09:40:34Z</time>
      </trkpt>
      <trkpt lat="50.55646" lon="3.91334">
        <ele>69.83</ele>
        <time>2013-03-10T09:40:41Z</time>
      </trkpt>
      <trkpt lat="50.55647" lon="3.91332">
        <ele>69.83</ele>
        <time>2013-03-10T09:40:42Z</time>
      </trkpt>
      <trkpt lat="50.55647" lon="3.91331">
        <ele>69.83</ele>
        <time>2013-03-10T09:40:43Z</time>
      </trkpt>
      <trkpt lat="50.55648" lon="3.91329">
        <ele>69.35</ele>
        <time>2013-03-10T09:40:44Z</time>
      </trkpt>
      <trkpt lat="50.55648" lon="3.91327">
        <ele>68.87</ele>
        <time>2013-03-10T09:40:45Z</time>
      </trkpt>
      <trkpt lat="50.55652" lon="3.91298">
        <ele>68.39</ele>
        <time>2013-03-10T09:40:58Z</time>
      </trkpt>
      <trkpt lat="50.55657" lon="3.91277">
        <ele>67.91</ele>
        <time>2013-03-10T09:41:11Z</time>
      </trkpt>
      <trkpt lat="50.55658" lon="3.91275">
        <ele>69.35</ele>
        <time>2013-03-10T09:41:13Z</time>
      </trkpt>
      <trkpt lat="50.55658" lon="3.91273">
        <ele>68.87</ele>
        <time>2013-03-10T09:41:14Z</time>
      </trkpt>
      <trkpt lat="50.55658" lon="3.91265">
        <ele>67.91</ele>
        <time>2013-03-10T09:41:17Z</time>
      </trkpt>
      <trkpt lat="50.55658" lon="3.91263">
        <ele>67.91</ele>
        <time>2013-03-10T09:41:18Z</time>
      </trkpt>
      <trkpt lat="50.55658" lon="3.9126">
        <ele>68.87</ele>
        <time>2013-03-10T09:41:19Z</time>
      </trkpt>
      <trkpt lat="50.55659" lon="3.91258">
        <ele>67.43</ele>
        <time>2013-03-10T09:41:20Z</time>
      </trkpt>
      <trkpt lat="50.55659" lon="3.91257">
        <ele>67.91</ele>
        <time>2013-03-10T09:41:21Z</time>
      </trkpt>
      <trkpt lat="50.55664" lon="3.91233">
        <ele>67.91</ele>
        <time>2013-03-10T09:41:32Z</time>
      </trkpt>
      <trkpt lat="50.55668" lon="3.91207">
        <ele>65.51</ele>
        <time>2013-03-10T09:41:46Z</time>
      </trkpt>
      <trkpt lat="50.55674" lon="3.91179">
        <ele>65.51</ele>
        <time>2013-03-10T09:41:59Z</time>
      </trkpt>
      <trkpt lat="50.55679" lon="3.91154">
        <ele>64.55</ele>
        <time>2013-03-10T09:42:11Z</time>
      </trkpt>
      <trkpt lat="50.55679" lon="3.91153">
        <ele>64.07</ele>
        <time>2013-03-10T09:42:12Z</time>
      </trkpt>
      <trkpt lat="50.55678" lon="3.91151">
        <ele>64.55</ele>
        <time>2013-03-10T09:42:13Z</time>
      </trkpt>
      <trkpt lat="50.55675" lon="3.91152">
        <ele>64.55</ele>
        <time>2013-03-10T09:42:19Z</time>
      </trkpt>
      <trkpt lat="50.55672" lon="3.91154">
        <ele>65.03</ele>
        <time>2013-03-10T09:42:22Z</time>
      </trkpt>
      <trkpt lat="50.55661" lon="3.9116">
        <ele>65.51</ele>
        <time>2013-03-10T09:42:31Z</time>
      </trkpt>
      <trkpt lat="50.55642" lon="3.91166">
        <ele>65.99</ele>
        <time>2013-03-10T09:42:46Z</time>
      </trkpt>
      <trkpt lat="50.55622" lon="3.91172">
        <ele>66.47</ele>
        <time>2013-03-10T09:42:59Z</time>
      </trkpt>
      <trkpt lat="50.55617" lon="3.91173">
        <ele>66.47</ele>
        <time>2013-03-10T09:43:03Z</time>
      </trkpt>
      <trkpt lat="50.55617" lon="3.91171">
        <ele>66.47</ele>
        <time>2013-03-10T09:43:04Z</time>
      </trkpt>
      <trkpt lat="50.55616" lon="3.91168">
        <ele>66.95</ele>
        <time>2013-03-10T09:43:06Z</time>
      </trkpt>
      <trkpt lat="50.55611" lon="3.91149">
        <ele>67.91</ele>
        <time>2013-03-10T09:43:16Z</time>
      </trkpt>
      <trkpt lat="50.55604" lon="3.91122">
        <ele>68.87</ele>
        <time>2013-03-10T09:43:30Z</time>
      </trkpt>
      <trkpt lat="50.55595" lon="3.91092">
        <ele>69.83</ele>
        <time>2013-03-10T09:43:45Z</time>
      </trkpt>
      <trkpt lat="50.55586" lon="3.91061">
        <ele>69.35</ele>
        <time>2013-03-10T09:44:01Z</time>
      </trkpt>
      <trkpt lat="50.55577" lon="3.91033">
        <ele>68.87</ele>
        <time>2013-03-10T09:44:15Z</time>
      </trkpt>
      <trkpt lat="50.5557" lon="3.91005">
        <ele>68.39</ele>
        <time>2013-03-10T09:44:30Z</time>
      </trkpt>
      <trkpt lat="50.55563" lon="3.90977">
        <ele>66.95</ele>
        <time>2013-03-10T09:44:44Z</time>
      </trkpt>
      <trkpt lat="50.55555" lon="3.90946">
        <ele>65.99</ele>
        <time>2013-03-10T09:44:59Z</time>
      </trkpt>
      <trkpt lat="50.55549" lon="3.90921">
        <ele>65.51</ele>
        <time>2013-03-10T09:45:11Z</time>
      </trkpt>
      <trkpt lat="50.55544" lon="3.90894">
        <ele>65.51</ele>
        <time>2013-03-10T09:45:24Z</time>
      </trkpt>
      <trkpt lat="50.55543" lon="3.90885">
        <ele>65.51</ele>
        <time>2013-03-10T09:45:29Z</time>
      </trkpt>
      <trkpt lat="50.55536" lon="3.90857">
        <ele>65.51</ele>
        <time>2013-03-10T09:45:43Z</time>
      </trkpt>
      <trkpt lat="50.55527" lon="3.9082">
        <ele>65.03</ele>
        <time>2013-03-10T09:46:02Z</time>
      </trkpt>
      <trkpt lat="50.5552" lon="3.90792">
        <ele>65.51</ele>
        <time>2013-03-10T09:46:16Z</time>
      </trkpt>
      <trkpt lat="50.55512" lon="3.90759">
        <ele>66.95</ele>
        <time>2013-03-10T09:46:32Z</time>
      </trkpt>
      <trkpt lat="50.55505" lon="3.90727">
        <ele>67.91</ele>
        <time>2013-03-10T09:46:47Z</time>
      </trkpt>
      <trkpt lat="50.55497" lon="3.90692">
        <ele>67.91</ele>
        <time>2013-03-10T09:47:04Z</time>
      </trkpt>
      <trkpt lat="50.55488" lon="3.90652">
        <ele>68.87</ele>
        <time>2013-03-10T09:47:23Z</time>
      </trkpt>
      <trkpt lat="50.55487" lon="3.90648">
        <ele>68.87</ele>
        <time>2013-03-10T09:47:27Z</time>
      </trkpt>
      <trkpt lat="50.55487" lon="3.90644">
        <ele>69.35</ele>
        <time>2013-03-10T09:47:29Z</time>
      </trkpt>
      <trkpt lat="50.55487" lon="3.90642">
        <ele>68.87</ele>
        <time>2013-03-10T09:47:30Z</time>
      </trkpt>
      <trkpt lat="50.55482" lon="3.90615">
        <ele>67.43</ele>
        <time>2013-03-10T09:47:44Z</time>
      </trkpt>
      <trkpt lat="50.55469" lon="3.90595">
        <ele>66.95</ele>
        <time>2013-03-10T09:47:57Z</time>
      </trkpt>
      <trkpt lat="50.55466" lon="3.90595">
        <ele>66.95</ele>
        <time>2013-03-10T09:48:00Z</time>
      </trkpt>
      <trkpt lat="50.55464" lon="3.90595">
        <ele>66.95</ele>
        <time>2013-03-10T09:48:01Z</time>
      </trkpt>
      <trkpt lat="50.55462" lon="3.90596">
        <ele>66.47</ele>
        <time>2013-03-10T09:48:02Z</time>
      </trkpt>
      <trkpt lat="50.55461" lon="3.90598">
        <ele>66.95</ele>
        <time>2013-03-10T09:48:03Z</time>
      </trkpt>
      <trkpt lat="50.55459" lon="3.90599">
        <ele>66.95</ele>
        <time>2013-03-10T09:48:04Z</time>
      </trkpt>
      <trkpt lat="50.55442" lon="3.90606">
        <ele>66.47</ele>
        <time>2013-03-10T09:48:17Z</time>
      </trkpt>
      <trkpt lat="50.55438" lon="3.90608">
        <ele>66.47</ele>
        <time>2013-03-10T09:48:19Z</time>
      </trkpt>
      <trkpt lat="50.55436" lon="3.90607">
        <ele>66.95</ele>
        <time>2013-03-10T09:48:20Z</time>
      </trkpt>
      <trkpt lat="50.55435" lon="3.90606">
        <ele>66.47</ele>
        <time>2013-03-10T09:48:21Z</time>
      </trkpt>
      <trkpt lat="50.55433" lon="3.90605">
        <ele>66.95</ele>
        <time>2013-03-10T09:48:22Z</time>
      </trkpt>
      <trkpt lat="50.55432" lon="3.90604">
        <ele>67.43</ele>
        <time>2013-03-10T09:48:23Z</time>
      </trkpt>
      <trkpt lat="50.55431" lon="3.90602">
        <ele>67.43</ele>
        <time>2013-03-10T09:48:24Z</time>
      </trkpt>
      <trkpt lat="50.5543" lon="3.90601">
        <ele>67.43</ele>
        <time>2013-03-10T09:48:25Z</time>
      </trkpt>
      <trkpt lat="50.5543" lon="3.90599">
        <ele>67.91</ele>
        <time>2013-03-10T09:48:26Z</time>
      </trkpt>
      <trkpt lat="50.55425" lon="3.90573">
        <ele>67.43</ele>
        <time>2013-03-10T09:48:37Z</time>
      </trkpt>
      <trkpt lat="50.55426" lon="3.90571">
        <ele>67.43</ele>
        <time>2013-03-10T09:48:38Z</time>
      </trkpt>
      <trkpt lat="50.55427" lon="3.90569">
        <ele>67.43</ele>
        <time>2013-03-10T09:48:39Z</time>
      </trkpt>
      <trkpt lat="50.5543" lon="3.90565">
        <ele>67.43</ele>
        <time>2013-03-10T09:48:42Z</time>
      </trkpt>
      <trkpt lat="50.55441" lon="3.90555">
        <ele>66.47</ele>
        <time>2013-03-10T09:48:54Z</time>
      </trkpt>
      <trkpt lat="50.55445" lon="3.90553">
        <ele>66.47</ele>
        <time>2013-03-10T09:48:59Z</time>
      </trkpt>
      <trkpt lat="50.55447" lon="3.90552">
        <ele>66.47</ele>
        <time>2013-03-10T09:49:00Z</time>
      </trkpt>
      <trkpt lat="50.55448" lon="3.90551">
        <ele>66.47</ele>
        <time>2013-03-10T09:49:01Z</time>
      </trkpt>
      <trkpt lat="50.55456" lon="3.90533">
        <ele>66.47</ele>
        <time>2013-03-10T09:49:15Z</time>
      </trkpt>
      <trkpt lat="50.55456" lon="3.90532">
        <ele>66.47</ele>
        <time>2013-03-10T09:49:16Z</time>
      </trkpt>
      <trkpt lat="50.5546" lon="3.90516">
        <ele>65.99</ele>
        <time>2013-03-10T09:49:26Z</time>
      </trkpt>
      <trkpt lat="50.55471" lon="3.90485">
        <ele>65.99</ele>
        <time>2013-03-10T09:49:40Z</time>
      </trkpt>
      <trkpt lat="50.55482" lon="3.90456">
        <ele>65.51</ele>
        <time>2013-03-10T09:49:55Z</time>
      </trkpt>
      <trkpt lat="50.55488" lon="3.90436">
        <ele>65.51</ele>
        <time>2013-03-10T09:50:07Z</time>
      </trkpt>
      <trkpt lat="50.5549" lon="3.90426">
        <ele>65.99</ele>
        <time>2013-03-10T09:50:11Z</time>
      </trkpt>
      <trkpt lat="50.55488" lon="3.90408">
        <ele>65.99</ele>
        <time>2013-03-10T09:50:21Z</time>
      </trkpt>
      <trkpt lat="50.55487" lon="3.90405">
        <ele>69.35</ele>
        <time>2013-03-10T09:50:23Z</time>
      </trkpt>
      <trkpt lat="50.55487" lon="3.90403">
        <ele>65.51</ele>
        <time>2013-03-10T09:50:24Z</time>
      </trkpt>
      <trkpt lat="50.55483" lon="3.90387">
        <ele>65.99</ele>
        <time>2013-03-10T09:50:33Z</time>
      </trkpt>
      <trkpt lat="50.55483" lon="3.90384">
        <ele>66.47</ele>
        <time>2013-03-10T09:50:34Z</time>
      </trkpt>
      <trkpt lat="50.55481" lon="3.90358">
        <ele>65.99</ele>
        <time>2013-03-10T09:50:47Z</time>
      </trkpt>
      <trkpt lat="50.55474" lon="3.90336">
        <ele>66.47</ele>
        <time>2013-03-10T09:50:58Z</time>
      </trkpt>
      <trkpt lat="50.55472" lon="3.90331">
        <ele>62.62</ele>
        <time>2013-03-10T09:51:01Z</time>
      </trkpt>
      <trkpt lat="50.55471" lon="3.90329">
        <ele>64.55</ele>
        <time>2013-03-10T09:51:02Z</time>
      </trkpt>
      <trkpt lat="50.5547" lon="3.90327">
        <ele>67.91</ele>
        <time>2013-03-10T09:51:04Z</time>
      </trkpt>
      <trkpt lat="50.55469" lon="3.90326">
        <ele>67.91</ele>
        <time>2013-03-10T09:51:05Z</time>
      </trkpt>
      <trkpt lat="50.55468" lon="3.90324">
        <ele>63.58</ele>
        <time>2013-03-10T09:51:06Z</time>
      </trkpt>
      <trkpt lat="50.55467" lon="3.90323">
        <ele>65.03</ele>
        <time>2013-03-10T09:51:07Z</time>
      </trkpt>
      <trkpt lat="50.55466" lon="3.90321">
        <ele>73.2</ele>
        <time>2013-03-10T09:51:08Z</time>
      </trkpt>
      <trkpt lat="50.55466" lon="3.90319">
        <ele>67.43</ele>
        <time>2013-03-10T09:51:09Z</time>
      </trkpt>
      <trkpt lat="50.55465" lon="3.90311">
        <ele>62.14</ele>
        <time>2013-03-10T09:51:14Z</time>
      </trkpt>
      <trkpt lat="50.55465" lon="3.90309">
        <ele>64.55</ele>
        <time>2013-03-10T09:51:15Z</time>
      </trkpt>
      <trkpt lat="50.55465" lon="3.90306">
        <ele>72.72</ele>
        <time>2013-03-10T09:51:17Z</time>
      </trkpt>
      <trkpt lat="50.55465" lon="3.90304">
        <ele>63.58</ele>
        <time>2013-03-10T09:51:18Z</time>
      </trkpt>
      <trkpt lat="50.55465" lon="3.90302">
        <ele>69.35</ele>
        <time>2013-03-10T09:51:19Z</time>
      </trkpt>
      <trkpt lat="50.55466" lon="3.90298">
        <ele>65.99</ele>
        <time>2013-03-10T09:51:21Z</time>
      </trkpt>
      <trkpt lat="50.55466" lon="3.90295">
        <ele>63.58</ele>
        <time>2013-03-10T09:51:23Z</time>
      </trkpt>
      <trkpt lat="50.55474" lon="3.90248">
        <ele>66.95</ele>
        <time>2013-03-10T09:52:37Z</time>
      </trkpt>
      <trkpt lat="50.55452" lon="3.90257">
        <ele>68.39</ele>
        <time>2013-03-10T09:52:49Z</time>
      </trkpt>
      <trkpt lat="50.55416" lon="3.90268">
        <ele>71.27</ele>
        <time>2013-03-10T09:53:01Z</time>
      </trkpt>
      <trkpt lat="50.55384" lon="3.90276">
        <ele>72.72</ele>
        <time>2013-03-10T09:53:14Z</time>
      </trkpt>
      <trkpt lat="50.55366" lon="3.90281">
        <ele>73.2</ele>
        <time>2013-03-10T09:53:26Z</time>
      </trkpt>
      <trkpt lat="50.55358" lon="3.90269">
        <ele>72.24</ele>
        <time>2013-03-10T09:53:40Z</time>
      </trkpt>
      <trkpt lat="50.5534" lon="3.90269">
        <ele>72.72</ele>
        <time>2013-03-10T09:53:55Z</time>
      </trkpt>
      <trkpt lat="50.55323" lon="3.90276">
        <ele>72.72</ele>
        <time>2013-03-10T09:54:10Z</time>
      </trkpt>
      <trkpt lat="50.55311" lon="3.90288">
        <ele>72.24</ele>
        <time>2013-03-10T09:54:24Z</time>
      </trkpt>
      <trkpt lat="50.55295" lon="3.90305">
        <ele>72.24</ele>
        <time>2013-03-10T09:54:42Z</time>
      </trkpt>
      <trkpt lat="50.55292" lon="3.90304">
        <ele>72.24</ele>
        <time>2013-03-10T09:54:43Z</time>
      </trkpt>
      <trkpt lat="50.55281" lon="3.90306">
        <ele>72.72</ele>
        <time>2013-03-10T09:54:47Z</time>
      </trkpt>
      <trkpt lat="50.55279" lon="3.90307">
        <ele>72.24</ele>
        <time>2013-03-10T09:54:48Z</time>
      </trkpt>
      <trkpt lat="50.55277" lon="3.90313">
        <ele>72.24</ele>
        <time>2013-03-10T09:54:50Z</time>
      </trkpt>
      <trkpt lat="50.55275" lon="3.90321">
        <ele>72.72</ele>
        <time>2013-03-10T09:54:59Z</time>
      </trkpt>
      <trkpt lat="50.55272" lon="3.90311">
        <ele>73.68</ele>
        <time>2013-03-10T09:55:07Z</time>
      </trkpt>
      <trkpt lat="50.55267" lon="3.90292">
        <ele>74.16</ele>
        <time>2013-03-10T09:55:23Z</time>
      </trkpt>
      <trkpt lat="50.55261" lon="3.90263">
        <ele>74.16</ele>
        <time>2013-03-10T09:55:38Z</time>
      </trkpt>
      <trkpt lat="50.55257" lon="3.90256">
        <ele>74.16</ele>
        <time>2013-03-10T09:55:41Z</time>
      </trkpt>
      <trkpt lat="50.55255" lon="3.90252">
        <ele>74.16</ele>
        <time>2013-03-10T09:55:42Z</time>
      </trkpt>
      <trkpt lat="50.5525" lon="3.90234">
        <ele>74.16</ele>
        <time>2013-03-10T09:55:53Z</time>
      </trkpt>
      <trkpt lat="50.5525" lon="3.9023">
        <ele>74.64</ele>
        <time>2013-03-10T09:55:56Z</time>
      </trkpt>
      <trkpt lat="50.55248" lon="3.90221">
        <ele>75.12</ele>
        <time>2013-03-10T09:56:02Z</time>
      </trkpt>
      <trkpt lat="50.55248" lon="3.90219">
        <ele>75.12</ele>
        <time>2013-03-10T09:56:03Z</time>
      </trkpt>
      <trkpt lat="50.55239" lon="3.90182">
        <ele>75.12</ele>
        <time>2013-03-10T09:56:18Z</time>
      </trkpt>
      <trkpt lat="50.55239" lon="3.9018">
        <ele>76.08</ele>
        <time>2013-03-10T09:56:19Z</time>
      </trkpt>
      <trkpt lat="50.55239" lon="3.90144">
        <ele>75.6</ele>
        <time>2013-03-10T09:56:36Z</time>
      </trkpt>
      <trkpt lat="50.55228" lon="3.90109">
        <ele>75.6</ele>
        <time>2013-03-10T09:56:50Z</time>
      </trkpt>
      <trkpt lat="50.55221" lon="3.90081">
        <ele>75.12</ele>
        <time>2013-03-10T09:57:03Z</time>
      </trkpt>
      <trkpt lat="50.55204" lon="3.90058">
        <ele>76.08</ele>
        <time>2013-03-10T09:57:17Z</time>
      </trkpt>
      <trkpt lat="50.55199" lon="3.90029">
        <ele>77.04</ele>
        <time>2013-03-10T09:57:32Z</time>
      </trkpt>
      <trkpt lat="50.55198" lon="3.90021">
        <ele>77.04</ele>
        <time>2013-03-10T09:57:36Z</time>
      </trkpt>
      <trkpt lat="50.55197" lon="3.9002">
        <ele>77.52</ele>
        <time>2013-03-10T09:57:37Z</time>
      </trkpt>
      <trkpt lat="50.55191" lon="3.89983">
        <ele>77.52</ele>
        <time>2013-03-10T09:57:54Z</time>
      </trkpt>
      <trkpt lat="50.55186" lon="3.89944">
        <ele>76.56</ele>
        <time>2013-03-10T09:58:12Z</time>
      </trkpt>
      <trkpt lat="50.55184" lon="3.89937">
        <ele>76.08</ele>
        <time>2013-03-10T09:58:19Z</time>
      </trkpt>
      <trkpt lat="50.55179" lon="3.89917">
        <ele>74.64</ele>
        <time>2013-03-10T09:58:33Z</time>
      </trkpt>
      <trkpt lat="50.55179" lon="3.89899">
        <ele>75.6</ele>
        <time>2013-03-10T09:58:46Z</time>
      </trkpt>
      <trkpt lat="50.55153" lon="3.89891">
        <ele>76.08</ele>
        <time>2013-03-10T09:59:03Z</time>
      </trkpt>
      <trkpt lat="50.55148" lon="3.89891">
        <ele>76.08</ele>
        <time>2013-03-10T09:59:07Z</time>
      </trkpt>
      <trkpt lat="50.55126" lon="3.89893">
        <ele>77.52</ele>
        <time>2013-03-10T09:59:21Z</time>
      </trkpt>
      <trkpt lat="50.55106" lon="3.89891">
        <ele>77.52</ele>
        <time>2013-03-10T09:59:35Z</time>
      </trkpt>
      <trkpt lat="50.55081" lon="3.89889">
        <ele>77.04</ele>
        <time>2013-03-10T09:59:52Z</time>
      </trkpt>
      <trkpt lat="50.55065" lon="3.89874">
        <ele>76.56</ele>
        <time>2013-03-10T10:00:08Z</time>
      </trkpt>
      <trkpt lat="50.55051" lon="3.89859">
        <ele>76.56</ele>
        <time>2013-03-10T10:00:24Z</time>
      </trkpt>
      <trkpt lat="50.55035" lon="3.89843">
        <ele>75.12</ele>
        <time>2013-03-10T10:00:39Z</time>
      </trkpt>
      <trkpt lat="50.5503" lon="3.89839">
        <ele>75.12</ele>
        <time>2013-03-10T10:00:42Z</time>
      </trkpt>
      <trkpt lat="50.55027" lon="3.89837">
        <ele>75.12</ele>
        <time>2013-03-10T10:00:43Z</time>
      </trkpt>
      <trkpt lat="50.55025" lon="3.89834">
        <ele>74.64</ele>
        <time>2013-03-10T10:00:44Z</time>
      </trkpt>
      <trkpt lat="50.55023" lon="3.89833">
        <ele>74.64</ele>
        <time>2013-03-10T10:00:45Z</time>
      </trkpt>
      <trkpt lat="50.55021" lon="3.89832">
        <ele>74.64</ele>
        <time>2013-03-10T10:00:46Z</time>
      </trkpt>
      <trkpt lat="50.55003" lon="3.89819">
        <ele>75.12</ele>
        <time>2013-03-10T10:00:57Z</time>
      </trkpt>
      <trkpt lat="50.54995" lon="3.89816">
        <ele>75.12</ele>
        <time>2013-03-10T10:01:02Z</time>
      </trkpt>
      <trkpt lat="50.54993" lon="3.89815">
        <ele>75.6</ele>
        <time>2013-03-10T10:01:03Z</time>
      </trkpt>
      <trkpt lat="50.54992" lon="3.89815">
        <ele>75.6</ele>
        <time>2013-03-10T10:01:04Z</time>
      </trkpt>
      <trkpt lat="50.5499" lon="3.89813">
        <ele>75.6</ele>
        <time>2013-03-10T10:01:05Z</time>
      </trkpt>
      <trkpt lat="50.54964" lon="3.89802">
        <ele>75.12</ele>
        <time>2013-03-10T10:01:18Z</time>
      </trkpt>
      <trkpt lat="50.54958" lon="3.8979">
        <ele>74.64</ele>
        <time>2013-03-10T10:01:31Z</time>
      </trkpt>
      <trkpt lat="50.54949" lon="3.89771">
        <ele>73.68</ele>
        <time>2013-03-10T10:01:45Z</time>
      </trkpt>
      <trkpt lat="50.54945" lon="3.89764">
        <ele>73.68</ele>
        <time>2013-03-10T10:01:53Z</time>
      </trkpt>
      <trkpt lat="50.54944" lon="3.89763">
        <ele>73.68</ele>
        <time>2013-03-10T10:01:54Z</time>
      </trkpt>
      <trkpt lat="50.54943" lon="3.89761">
        <ele>73.2</ele>
        <time>2013-03-10T10:01:55Z</time>
      </trkpt>
      <trkpt lat="50.54936" lon="3.89749">
        <ele>73.2</ele>
        <time>2013-03-10T10:02:05Z</time>
      </trkpt>
      <trkpt lat="50.54922" lon="3.89737">
        <ele>73.2</ele>
        <time>2013-03-10T10:02:17Z</time>
      </trkpt>
      <trkpt lat="50.54904" lon="3.89716">
        <ele>73.2</ele>
        <time>2013-03-10T10:02:35Z</time>
      </trkpt>
      <trkpt lat="50.54883" lon="3.89698">
        <ele>72.24</ele>
        <time>2013-03-10T10:02:53Z</time>
      </trkpt>
      <trkpt lat="50.54864" lon="3.89675">
        <ele>71.76</ele>
        <time>2013-03-10T10:03:10Z</time>
      </trkpt>
      <trkpt lat="50.54853" lon="3.8966">
        <ele>72.72</ele>
        <time>2013-03-10T10:03:25Z</time>
      </trkpt>
      <trkpt lat="50.54841" lon="3.89635">
        <ele>72.72</ele>
        <time>2013-03-10T10:03:42Z</time>
      </trkpt>
      <trkpt lat="50.54828" lon="3.89604">
        <ele>72.72</ele>
        <time>2013-03-10T10:03:59Z</time>
      </trkpt>
      <trkpt lat="50.54807" lon="3.89583">
        <ele>72.72</ele>
        <time>2013-03-10T10:04:16Z</time>
      </trkpt>
      <trkpt lat="50.54785" lon="3.8957">
        <ele>72.24</ele>
        <time>2013-03-10T10:04:36Z</time>
      </trkpt>
      <trkpt lat="50.54764" lon="3.89552">
        <ele>72.24</ele>
        <time>2013-03-10T10:04:53Z</time>
      </trkpt>
      <trkpt lat="50.5474" lon="3.89538">
        <ele>72.24</ele>
        <time>2013-03-10T10:05:09Z</time>
      </trkpt>
      <trkpt lat="50.54738" lon="3.89533">
        <ele>72.24</ele>
        <time>2013-03-10T10:05:12Z</time>
      </trkpt>
      <trkpt lat="50.54728" lon="3.89509">
        <ele>71.76</ele>
        <time>2013-03-10T10:05:28Z</time>
      </trkpt>
      <trkpt lat="50.54729" lon="3.89505">
        <ele>71.76</ele>
        <time>2013-03-10T10:05:32Z</time>
      </trkpt>
      <trkpt lat="50.54729" lon="3.89502">
        <ele>71.76</ele>
        <time>2013-03-10T10:05:34Z</time>
      </trkpt>
      <trkpt lat="50.54728" lon="3.89476">
        <ele>71.76</ele>
        <time>2013-03-10T10:05:52Z</time>
      </trkpt>
      <trkpt lat="50.54724" lon="3.8945">
        <ele>71.76</ele>
        <time>2013-03-10T10:06:08Z</time>
      </trkpt>
      <trkpt lat="50.5472" lon="3.89426">
        <ele>71.76</ele>
        <time>2013-03-10T10:06:26Z</time>
      </trkpt>
      <trkpt lat="50.54722" lon="3.89407">
        <ele>72.24</ele>
        <time>2013-03-10T10:06:36Z</time>
      </trkpt>
      <trkpt lat="50.54723" lon="3.89386">
        <ele>72.24</ele>
        <time>2013-03-10T10:06:49Z</time>
      </trkpt>
      <trkpt lat="50.54724" lon="3.8937">
        <ele>73.2</ele>
        <time>2013-03-10T10:06:58Z</time>
      </trkpt>
      <trkpt lat="50.54724" lon="3.89368">
        <ele>73.2</ele>
        <time>2013-03-10T10:06:59Z</time>
      </trkpt>
      <trkpt lat="50.54726" lon="3.89332">
        <ele>73.68</ele>
        <time>2013-03-10T10:07:16Z</time>
      </trkpt>
      <trkpt lat="50.54726" lon="3.8933">
        <ele>73.68</ele>
        <time>2013-03-10T10:07:17Z</time>
      </trkpt>
      <trkpt lat="50.54726" lon="3.89327">
        <ele>74.16</ele>
        <time>2013-03-10T10:07:18Z</time>
      </trkpt>
      <trkpt lat="50.54725" lon="3.89308">
        <ele>74.16</ele>
        <time>2013-03-10T10:07:23Z</time>
      </trkpt>
      <trkpt lat="50.54715" lon="3.89262">
        <ele>74.64</ele>
        <time>2013-03-10T10:07:39Z</time>
      </trkpt>
      <trkpt lat="50.5472" lon="3.89243">
        <ele>76.08</ele>
        <time>2013-03-10T10:07:52Z</time>
      </trkpt>
      <trkpt lat="50.5472" lon="3.89237">
        <ele>75.6</ele>
        <time>2013-03-10T10:07:55Z</time>
      </trkpt>
      <trkpt lat="50.54721" lon="3.89234">
        <ele>75.6</ele>
        <time>2013-03-10T10:07:56Z</time>
      </trkpt>
      <trkpt lat="50.54708" lon="3.89219">
        <ele>75.6</ele>
        <time>2013-03-10T10:08:00Z</time>
      </trkpt>
      <trkpt lat="50.54708" lon="3.89218">
        <ele>75.6</ele>
        <time>2013-03-10T10:08:01Z</time>
      </trkpt>
      <trkpt lat="50.5473" lon="3.89218">
        <ele>76.08</ele>
        <time>2013-03-10T10:08:17Z</time>
      </trkpt>
      <trkpt lat="50.54754" lon="3.89226">
        <ele>77.04</ele>
        <time>2013-03-10T10:08:35Z</time>
      </trkpt>
      <trkpt lat="50.5477" lon="3.89227">
        <ele>77.04</ele>
        <time>2013-03-10T10:08:49Z</time>
      </trkpt>
      <trkpt lat="50.54798" lon="3.89233">
        <ele>77.52</ele>
        <time>2013-03-10T10:09:08Z</time>
      </trkpt>
      <trkpt lat="50.54828" lon="3.89239">
        <ele>78</ele>
        <time>2013-03-10T10:09:29Z</time>
      </trkpt>
      <trkpt lat="50.54855" lon="3.8924">
        <ele>78</ele>
        <time>2013-03-10T10:09:47Z</time>
      </trkpt>
      <trkpt lat="50.54892" lon="3.89245">
        <ele>78.48</ele>
        <time>2013-03-10T10:10:12Z</time>
      </trkpt>
      <trkpt lat="50.54921" lon="3.89258">
        <ele>79.45</ele>
        <time>2013-03-10T10:10:33Z</time>
      </trkpt>
      <trkpt lat="50.54946" lon="3.89259">
        <ele>79.45</ele>
        <time>2013-03-10T10:10:53Z</time>
      </trkpt>
      <trkpt lat="50.54963" lon="3.89258">
        <ele>78.97</ele>
        <time>2013-03-10T10:11:05Z</time>
      </trkpt>
      <trkpt lat="50.54968" lon="3.8926">
        <ele>79.45</ele>
        <time>2013-03-10T10:11:17Z</time>
      </trkpt>
      <trkpt lat="50.54993" lon="3.89261">
        <ele>79.93</ele>
        <time>2013-03-10T10:11:38Z</time>
      </trkpt>
      <trkpt lat="50.55023" lon="3.89264">
        <ele>78.97</ele>
        <time>2013-03-10T10:11:59Z</time>
      </trkpt>
      <trkpt lat="50.55055" lon="3.89267">
        <ele>78.48</ele>
        <time>2013-03-10T10:12:22Z</time>
      </trkpt>
      <trkpt lat="50.55086" lon="3.89272">
        <ele>78</ele>
        <time>2013-03-10T10:12:43Z</time>
      </trkpt>
      <trkpt lat="50.55114" lon="3.89277">
        <ele>78</ele>
        <time>2013-03-10T10:13:03Z</time>
      </trkpt>
      <trkpt lat="50.55141" lon="3.89286">
        <ele>77.04</ele>
        <time>2013-03-10T10:13:24Z</time>
      </trkpt>
      <trkpt lat="50.55168" lon="3.89299">
        <ele>77.04</ele>
        <time>2013-03-10T10:13:44Z</time>
      </trkpt>
      <trkpt lat="50.55196" lon="3.89312">
        <ele>76.08</ele>
        <time>2013-03-10T10:14:05Z</time>
      </trkpt>
      <trkpt lat="50.55206" lon="3.89317">
        <ele>75.6</ele>
        <time>2013-03-10T10:14:15Z</time>
      </trkpt>
      <trkpt lat="50.55207" lon="3.89318">
        <ele>76.56</ele>
        <time>2013-03-10T10:14:16Z</time>
      </trkpt>
      <trkpt lat="50.55227" lon="3.89328">
        <ele>76.08</ele>
        <time>2013-03-10T10:14:33Z</time>
      </trkpt>
      <trkpt lat="50.5525" lon="3.89341">
        <ele>76.08</ele>
        <time>2013-03-10T10:14:51Z</time>
      </trkpt>
      <trkpt lat="50.55265" lon="3.89345">
        <ele>75.12</ele>
        <time>2013-03-10T10:15:04Z</time>
      </trkpt>
      <trkpt lat="50.55265" lon="3.89345">
        <ele>75.12</ele>
        <time>2013-03-10T10:15:10Z</time>
      </trkpt>
      <trkpt lat="50.55267" lon="3.89346">
        <ele>75.12</ele>
        <time>2013-03-10T10:15:11Z</time>
      </trkpt>
      <trkpt lat="50.55268" lon="3.89347">
        <ele>75.12</ele>
        <time>2013-03-10T10:15:12Z</time>
      </trkpt>
      <trkpt lat="50.55269" lon="3.89348">
        <ele>75.12</ele>
        <time>2013-03-10T10:15:13Z</time>
      </trkpt>
      <trkpt lat="50.5527" lon="3.89348">
        <ele>75.12</ele>
        <time>2013-03-10T10:15:14Z</time>
      </trkpt>
      <trkpt lat="50.55285" lon="3.89355">
        <ele>75.12</ele>
        <time>2013-03-10T10:15:27Z</time>
      </trkpt>
      <trkpt lat="50.5529" lon="3.89358">
        <ele>74.64</ele>
        <time>2013-03-10T10:15:37Z</time>
      </trkpt>
      <trkpt lat="50.55291" lon="3.89358">
        <ele>74.64</ele>
        <time>2013-03-10T10:15:38Z</time>
      </trkpt>
      <trkpt lat="50.55293" lon="3.89359">
        <ele>74.64</ele>
        <time>2013-03-10T10:15:39Z</time>
      </trkpt>
      <trkpt lat="50.55293" lon="3.8936">
        <ele>74.64</ele>
        <time>2013-03-10T10:15:40Z</time>
      </trkpt>
      <trkpt lat="50.55293" lon="3.89361">
        <ele>75.12</ele>
        <time>2013-03-10T10:15:41Z</time>
      </trkpt>
      <trkpt lat="50.55294" lon="3.89363">
        <ele>76.08</ele>
        <time>2013-03-10T10:15:42Z</time>
      </trkpt>
      <trkpt lat="50.5531" lon="3.89372">
        <ele>75.12</ele>
        <time>2013-03-10T10:15:58Z</time>
      </trkpt>
      <trkpt lat="50.55316" lon="3.89375">
        <ele>75.12</ele>
        <time>2013-03-10T10:16:15Z</time>
      </trkpt>
      <trkpt lat="50.55326" lon="3.8938">
        <ele>74.64</ele>
        <time>2013-03-10T10:16:30Z</time>
      </trkpt>
      <trkpt lat="50.55338" lon="3.89383">
        <ele>74.64</ele>
        <time>2013-03-10T10:16:43Z</time>
      </trkpt>
      <trkpt lat="50.55358" lon="3.89394">
        <ele>74.16</ele>
        <time>2013-03-10T10:17:00Z</time>
      </trkpt>
      <trkpt lat="50.55366" lon="3.89397">
        <ele>74.16</ele>
        <time>2013-03-10T10:17:07Z</time>
      </trkpt>
      <trkpt lat="50.55368" lon="3.89397">
        <ele>74.16</ele>
        <time>2013-03-10T10:17:08Z</time>
      </trkpt>
      <trkpt lat="50.55369" lon="3.89398">
        <ele>74.16</ele>
        <time>2013-03-10T10:17:09Z</time>
      </trkpt>
      <trkpt lat="50.55376" lon="3.89401">
        <ele>73.68</ele>
        <time>2013-03-10T10:17:22Z</time>
      </trkpt>
      <trkpt lat="50.55388" lon="3.89406">
        <ele>73.68</ele>
        <time>2013-03-10T10:17:33Z</time>
      </trkpt>
      <trkpt lat="50.55389" lon="3.89407">
        <ele>74.16</ele>
        <time>2013-03-10T10:17:34Z</time>
      </trkpt>
      <trkpt lat="50.55409" lon="3.89413">
        <ele>73.68</ele>
        <time>2013-03-10T10:17:49Z</time>
      </trkpt>
      <trkpt lat="50.55432" lon="3.89411">
        <ele>73.2</ele>
        <time>2013-03-10T10:18:08Z</time>
      </trkpt>
      <trkpt lat="50.55454" lon="3.89396">
        <ele>72.24</ele>
        <time>2013-03-10T10:18:26Z</time>
      </trkpt>
      <trkpt lat="50.55456" lon="3.89394">
        <ele>72.24</ele>
        <time>2013-03-10T10:18:28Z</time>
      </trkpt>
      <trkpt lat="50.55457" lon="3.89394">
        <ele>71.76</ele>
        <time>2013-03-10T10:18:29Z</time>
      </trkpt>
      <trkpt lat="50.55458" lon="3.89393">
        <ele>72.72</ele>
        <time>2013-03-10T10:18:30Z</time>
      </trkpt>
      <trkpt lat="50.55459" lon="3.89392">
        <ele>72.72</ele>
        <time>2013-03-10T10:18:31Z</time>
      </trkpt>
      <trkpt lat="50.55461" lon="3.89391">
        <ele>71.76</ele>
        <time>2013-03-10T10:18:32Z</time>
      </trkpt>
      <trkpt lat="50.55484" lon="3.89377">
        <ele>71.76</ele>
        <time>2013-03-10T10:18:48Z</time>
      </trkpt>
      <trkpt lat="50.55499" lon="3.89374">
        <ele>70.79</ele>
        <time>2013-03-10T10:19:03Z</time>
      </trkpt>
      <trkpt lat="50.55518" lon="3.8939">
        <ele>70.79</ele>
        <time>2013-03-10T10:19:20Z</time>
      </trkpt>
      <trkpt lat="50.55534" lon="3.89399">
        <ele>69.83</ele>
        <time>2013-03-10T10:19:35Z</time>
      </trkpt>
      <trkpt lat="50.55535" lon="3.89399">
        <ele>70.31</ele>
        <time>2013-03-10T10:19:36Z</time>
      </trkpt>
      <trkpt lat="50.55536" lon="3.894">
        <ele>69.83</ele>
        <time>2013-03-10T10:19:37Z</time>
      </trkpt>
      <trkpt lat="50.55537" lon="3.89401">
        <ele>70.31</ele>
        <time>2013-03-10T10:19:38Z</time>
      </trkpt>
      <trkpt lat="50.55539" lon="3.89403">
        <ele>70.31</ele>
        <time>2013-03-10T10:19:39Z</time>
      </trkpt>
      <trkpt lat="50.55553" lon="3.89415">
        <ele>70.31</ele>
        <time>2013-03-10T10:19:52Z</time>
      </trkpt>
      <trkpt lat="50.55576" lon="3.89418">
        <ele>70.79</ele>
        <time>2013-03-10T10:20:09Z</time>
      </trkpt>
      <trkpt lat="50.55597" lon="3.89419">
        <ele>70.31</ele>
        <time>2013-03-10T10:20:24Z</time>
      </trkpt>
      <trkpt lat="50.55625" lon="3.89419">
        <ele>70.31</ele>
        <time>2013-03-10T10:20:42Z</time>
      </trkpt>
      <trkpt lat="50.5565" lon="3.89417">
        <ele>70.79</ele>
        <time>2013-03-10T10:20:59Z</time>
      </trkpt>
      <trkpt lat="50.55652" lon="3.8942">
        <ele>70.79</ele>
        <time>2013-03-10T10:21:02Z</time>
      </trkpt>
      <trkpt lat="50.55652" lon="3.89422">
        <ele>70.79</ele>
        <time>2013-03-10T10:21:03Z</time>
      </trkpt>
      <trkpt lat="50.55652" lon="3.89424">
        <ele>70.31</ele>
        <time>2013-03-10T10:21:04Z</time>
      </trkpt>
      <trkpt lat="50.55652" lon="3.89426">
        <ele>70.79</ele>
        <time>2013-03-10T10:21:05Z</time>
      </trkpt>
      <trkpt lat="50.55652" lon="3.89428">
        <ele>70.31</ele>
        <time>2013-03-10T10:21:06Z</time>
      </trkpt>
      <trkpt lat="50.55651" lon="3.89435">
        <ele>70.31</ele>
        <time>2013-03-10T10:21:10Z</time>
      </trkpt>
      <trkpt lat="50.55652" lon="3.89436">
        <ele>70.79</ele>
        <time>2013-03-10T10:21:11Z</time>
      </trkpt>
      <trkpt lat="50.55652" lon="3.89437">
        <ele>70.31</ele>
        <time>2013-03-10T10:21:12Z</time>
      </trkpt>
      <trkpt lat="50.55649" lon="3.89468">
        <ele>70.31</ele>
        <time>2013-03-10T10:21:28Z</time>
      </trkpt>
      <trkpt lat="50.55647" lon="3.89495">
        <ele>70.79</ele>
        <time>2013-03-10T10:21:42Z</time>
      </trkpt>
      <trkpt lat="50.55647" lon="3.89497">
        <ele>70.31</ele>
        <time>2013-03-10T10:21:43Z</time>
      </trkpt>
      <trkpt lat="50.55647" lon="3.89499">
        <ele>70.79</ele>
        <time>2013-03-10T10:21:44Z</time>
      </trkpt>
      <trkpt lat="50.55641" lon="3.89537">
        <ele>70.79</ele>
        <time>2013-03-10T10:22:03Z</time>
      </trkpt>
      <trkpt lat="50.55642" lon="3.89559">
        <ele>70.79</ele>
        <time>2013-03-10T10:22:14Z</time>
      </trkpt>
      <trkpt lat="50.55643" lon="3.89561">
        <ele>71.27</ele>
        <time>2013-03-10T10:22:15Z</time>
      </trkpt>
      <trkpt lat="50.55644" lon="3.89563">
        <ele>71.27</ele>
        <time>2013-03-10T10:22:16Z</time>
      </trkpt>
      <trkpt lat="50.55645" lon="3.89564">
        <ele>71.27</ele>
        <time>2013-03-10T10:22:17Z</time>
      </trkpt>
      <trkpt lat="50.55646" lon="3.89567">
        <ele>71.76</ele>
        <time>2013-03-10T10:22:18Z</time>
      </trkpt>
      <trkpt lat="50.55646" lon="3.89569">
        <ele>71.76</ele>
        <time>2013-03-10T10:22:19Z</time>
      </trkpt>
      <trkpt lat="50.55648" lon="3.89573">
        <ele>71.27</ele>
        <time>2013-03-10T10:22:23Z</time>
      </trkpt>
      <trkpt lat="50.55648" lon="3.89575">
        <ele>71.27</ele>
        <time>2013-03-10T10:22:24Z</time>
      </trkpt>
      <trkpt lat="50.55648" lon="3.89576">
        <ele>70.79</ele>
        <time>2013-03-10T10:22:25Z</time>
      </trkpt>
      <trkpt lat="50.55648" lon="3.89578">
        <ele>71.76</ele>
        <time>2013-03-10T10:22:26Z</time>
      </trkpt>
      <trkpt lat="50.55649" lon="3.8958">
        <ele>71.76</ele>
        <time>2013-03-10T10:22:27Z</time>
      </trkpt>
      <trkpt lat="50.55649" lon="3.89583">
        <ele>71.27</ele>
        <time>2013-03-10T10:22:28Z</time>
      </trkpt>
      <trkpt lat="50.5565" lon="3.89585">
        <ele>71.27</ele>
        <time>2013-03-10T10:22:29Z</time>
      </trkpt>
      <trkpt lat="50.5565" lon="3.89587">
        <ele>71.27</ele>
        <time>2013-03-10T10:22:30Z</time>
      </trkpt>
      <trkpt lat="50.5565" lon="3.89589">
        <ele>72.24</ele>
        <time>2013-03-10T10:22:31Z</time>
      </trkpt>
      <trkpt lat="50.55651" lon="3.89591">
        <ele>72.24</ele>
        <time>2013-03-10T10:22:32Z</time>
      </trkpt>
      <trkpt lat="50.55651" lon="3.89594">
        <ele>72.24</ele>
        <time>2013-03-10T10:22:33Z</time>
      </trkpt>
      <trkpt lat="50.55654" lon="3.89606">
        <ele>71.76</ele>
        <time>2013-03-10T10:22:38Z</time>
      </trkpt>
      <trkpt lat="50.55654" lon="3.89609">
        <ele>72.24</ele>
        <time>2013-03-10T10:22:39Z</time>
      </trkpt>
      <trkpt lat="50.55655" lon="3.89611">
        <ele>71.76</ele>
        <time>2013-03-10T10:22:40Z</time>
      </trkpt>
      <trkpt lat="50.55655" lon="3.89614">
        <ele>71.27</ele>
        <time>2013-03-10T10:22:41Z</time>
      </trkpt>
      <trkpt lat="50.55656" lon="3.89616">
        <ele>72.24</ele>
        <time>2013-03-10T10:22:42Z</time>
      </trkpt>
      <trkpt lat="50.55656" lon="3.89618">
        <ele>71.76</ele>
        <time>2013-03-10T10:22:43Z</time>
      </trkpt>
      <trkpt lat="50.55657" lon="3.89621">
        <ele>71.76</ele>
        <time>2013-03-10T10:22:44Z</time>
      </trkpt>
      <trkpt lat="50.55658" lon="3.89623">
        <ele>71.76</ele>
        <time>2013-03-10T10:22:45Z</time>
      </trkpt>
      <trkpt lat="50.55658" lon="3.89626">
        <ele>72.24</ele>
        <time>2013-03-10T10:22:46Z</time>
      </trkpt>
      <trkpt lat="50.55659" lon="3.89627">
        <ele>72.24</ele>
        <time>2013-03-10T10:22:47Z</time>
      </trkpt>
      <trkpt lat="50.55659" lon="3.89629">
        <ele>72.24</ele>
        <time>2013-03-10T10:22:48Z</time>
      </trkpt>
      <trkpt lat="50.5566" lon="3.89631">
        <ele>71.76</ele>
        <time>2013-03-10T10:22:49Z</time>
      </trkpt>
      <trkpt lat="50.5566" lon="3.89633">
        <ele>71.76</ele>
        <time>2013-03-10T10:22:50Z</time>
      </trkpt>
      <trkpt lat="50.55661" lon="3.89635">
        <ele>72.24</ele>
        <time>2013-03-10T10:22:51Z</time>
      </trkpt>
      <trkpt lat="50.55661" lon="3.89637">
        <ele>72.24</ele>
        <time>2013-03-10T10:22:52Z</time>
      </trkpt>
      <trkpt lat="50.55662" lon="3.89639">
        <ele>72.24</ele>
        <time>2013-03-10T10:22:53Z</time>
      </trkpt>
      <trkpt lat="50.55662" lon="3.89676">
        <ele>72.72</ele>
        <time>2013-03-10T10:23:09Z</time>
      </trkpt>
      <trkpt lat="50.55661" lon="3.89683">
        <ele>72.24</ele>
        <time>2013-03-10T10:23:13Z</time>
      </trkpt>
      <trkpt lat="50.55656" lon="3.89691">
        <ele>72.24</ele>
        <time>2013-03-10T10:23:19Z</time>
      </trkpt>
      <trkpt lat="50.55643" lon="3.89699">
        <ele>72.72</ele>
        <time>2013-03-10T10:23:29Z</time>
      </trkpt>
      <trkpt lat="50.55642" lon="3.89729">
        <ele>72.72</ele>
        <time>2013-03-10T10:23:45Z</time>
      </trkpt>
      <trkpt lat="50.55642" lon="3.89731">
        <ele>72.24</ele>
        <time>2013-03-10T10:23:46Z</time>
      </trkpt>
      <trkpt lat="50.55646" lon="3.89772">
        <ele>72.72</ele>
        <time>2013-03-10T10:24:05Z</time>
      </trkpt>
      <trkpt lat="50.55648" lon="3.89783">
        <ele>72.24</ele>
        <time>2013-03-10T10:24:11Z</time>
      </trkpt>
      <trkpt lat="50.55647" lon="3.89789">
        <ele>72.24</ele>
        <time>2013-03-10T10:24:15Z</time>
      </trkpt>
      <trkpt lat="50.55659" lon="3.89812">
        <ele>71.27</ele>
        <time>2013-03-10T10:24:27Z</time>
      </trkpt>
      <trkpt lat="50.55659" lon="3.89843">
        <ele>71.27</ele>
        <time>2013-03-10T10:24:41Z</time>
      </trkpt>
      <trkpt lat="50.55663" lon="3.89874">
        <ele>70.79</ele>
        <time>2013-03-10T10:24:56Z</time>
      </trkpt>
      <trkpt lat="50.55665" lon="3.89893">
        <ele>71.76</ele>
        <time>2013-03-10T10:25:03Z</time>
      </trkpt>
      <trkpt lat="50.55664" lon="3.89901">
        <ele>71.76</ele>
        <time>2013-03-10T10:25:07Z</time>
      </trkpt>
      <trkpt lat="50.5566" lon="3.89914">
        <ele>71.76</ele>
        <time>2013-03-10T10:25:15Z</time>
      </trkpt>
      <trkpt lat="50.55648" lon="3.89914">
        <ele>69.83</ele>
        <time>2013-03-10T10:25:28Z</time>
      </trkpt>
      <trkpt lat="50.55638" lon="3.89912">
        <ele>69.35</ele>
        <time>2013-03-10T10:25:37Z</time>
      </trkpt>
      <trkpt lat="50.5564" lon="3.89931">
        <ele>68.87</ele>
        <time>2013-03-10T10:25:50Z</time>
      </trkpt>
      <trkpt lat="50.55648" lon="3.8995">
        <ele>68.87</ele>
        <time>2013-03-10T10:26:00Z</time>
      </trkpt>
      <trkpt lat="50.55648" lon="3.89976">
        <ele>68.39</ele>
        <time>2013-03-10T10:26:12Z</time>
      </trkpt>
      <trkpt lat="50.55645" lon="3.89979">
        <ele>68.39</ele>
        <time>2013-03-10T10:26:15Z</time>
      </trkpt>
      <trkpt lat="50.55643" lon="3.89998">
        <ele>68.87</ele>
        <time>2013-03-10T10:26:24Z</time>
      </trkpt>
      <trkpt lat="50.55644" lon="3.90001">
        <ele>69.83</ele>
        <time>2013-03-10T10:26:26Z</time>
      </trkpt>
      <trkpt lat="50.55622" lon="3.90032">
        <ele>70.79</ele>
        <time>2013-03-10T10:26:41Z</time>
      </trkpt>
      <trkpt lat="50.55622" lon="3.90035">
        <ele>70.79</ele>
        <time>2013-03-10T10:26:43Z</time>
      </trkpt>
      <trkpt lat="50.55624" lon="3.90045">
        <ele>70.79</ele>
        <time>2013-03-10T10:26:48Z</time>
      </trkpt>
      <trkpt lat="50.55625" lon="3.90054">
        <ele>70.79</ele>
        <time>2013-03-10T10:26:52Z</time>
      </trkpt>
      <trkpt lat="50.55627" lon="3.90095">
        <ele>69.83</ele>
        <time>2013-03-10T10:27:10Z</time>
      </trkpt>
      <trkpt lat="50.55626" lon="3.9012">
        <ele>68.39</ele>
        <time>2013-03-10T10:27:21Z</time>
      </trkpt>
      <trkpt lat="50.55627" lon="3.90133">
        <ele>68.39</ele>
        <time>2013-03-10T10:27:28Z</time>
      </trkpt>
      <trkpt lat="50.55625" lon="3.90143">
        <ele>68.39</ele>
        <time>2013-03-10T10:27:33Z</time>
      </trkpt>
      <trkpt lat="50.55623" lon="3.90159">
        <ele>68.39</ele>
        <time>2013-03-10T10:27:43Z</time>
      </trkpt>
      <trkpt lat="50.55626" lon="3.90162">
        <ele>67.91</ele>
        <time>2013-03-10T10:27:46Z</time>
      </trkpt>
      <trkpt lat="50.55627" lon="3.90165">
        <ele>67.43</ele>
        <time>2013-03-10T10:27:48Z</time>
      </trkpt>
      <trkpt lat="50.55625" lon="3.90177">
        <ele>68.39</ele>
        <time>2013-03-10T10:27:54Z</time>
      </trkpt>
      <trkpt lat="50.55625" lon="3.90181">
        <ele>68.39</ele>
        <time>2013-03-10T10:27:56Z</time>
      </trkpt>
      <trkpt lat="50.55622" lon="3.90201">
        <ele>68.39</ele>
        <time>2013-03-10T10:28:06Z</time>
      </trkpt>
      <trkpt lat="50.55622" lon="3.90204">
        <ele>66.95</ele>
        <time>2013-03-10T10:28:08Z</time>
      </trkpt>
      <trkpt lat="50.55624" lon="3.90258">
        <ele>65.99</ele>
        <time>2013-03-10T10:28:35Z</time>
      </trkpt>
      <trkpt lat="50.55624" lon="3.90259">
        <ele>65.51</ele>
        <time>2013-03-10T10:28:36Z</time>
      </trkpt>
      <trkpt lat="50.55611" lon="3.90257">
        <ele>64.55</ele>
        <time>2013-03-10T10:28:50Z</time>
      </trkpt>
      <trkpt lat="50.55608" lon="3.9026">
        <ele>60.7</ele>
        <time>2013-03-10T10:28:58Z</time>
      </trkpt>
      <trkpt lat="50.55608" lon="3.9026">
        <ele>71.27</ele>
        <time>2013-03-10T10:28:59Z</time>
      </trkpt>
      <trkpt lat="50.55608" lon="3.9026">
        <ele>61.66</ele>
        <time>2013-03-10T10:29:00Z</time>
      </trkpt>
      <trkpt lat="50.55608" lon="3.9026">
        <ele>68.87</ele>
        <time>2013-03-10T10:29:01Z</time>
      </trkpt>
      <trkpt lat="50.55607" lon="3.9026">
        <ele>65.03</ele>
        <time>2013-03-10T10:29:02Z</time>
      </trkpt>
    </trkseg>
  </trk>
</gpx>